<?xml version="1.0" encoding="UTF-8" standalone="no" ?>
<gpx xmlns="http://www.topografix.com/GPX/1/1" xmlns:xsi="http://www.w3.org/2001/XMLSchema-instance" xsi:schemaLocation="http://www.topografix.com/GPX/1/1 http://www.topografix.com/GPX/1/1/gpx.xsd" version="1.1" creator="VisuGPX - https://www.visugpx.com">
  <metadata>
    <name>Ecrins 2021</name>
  </metadata>
  <wpt lat="44.8396" lon="6.47901">
    <ele>1191.4</ele>
    <name><![CDATA[Vallouise]]></name>
  </wpt>
  <wpt lat="44.83903" lon="6.47524">
    <ele>1196.1</ele>
    <name><![CDATA[Pont des Fontaines]]></name>
  </wpt>
  <wpt lat="44.83931" lon="6.45488">
    <ele>1245.7</ele>
    <name><![CDATA[Pont des Places]]></name>
  </wpt>
  <wpt lat="44.83632" lon="6.44255">
    <ele>1309.8</ele>
    <name><![CDATA[Eboulement]]></name>
  </wpt>
  <wpt lat="44.83869" lon="6.44564">
    <ele>1289.8</ele>
    <name><![CDATA[Les Grésourières]]></name>
  </wpt>
  <wpt lat="44.83597" lon="6.43037">
    <ele>1466.9</ele>
    <name><![CDATA[Béassac]]></name>
  </wpt>
  <wpt lat="44.83117" lon="6.40174">
    <ele>1622.1</ele>
    <name><![CDATA[Entre les Aygues]]></name>
  </wpt>
  <wpt lat="44.83049" lon="6.40124">
    <ele>1609.1</ele>
    <name><![CDATA[Passerelle sur le torrent des Bans]]></name>
  </wpt>
  <wpt lat="44.81358" lon="6.38864">
    <ele>1836.5</ele>
    <name><![CDATA[Panneau d'entrée dans le parc des Ecrins]]></name>
  </wpt>
  <wpt lat="44.80661" lon="6.37616">
    <ele>1939.8</ele>
    <name><![CDATA[Passerelle sur le ruisseau du Ravin du Blanc]]></name>
  </wpt>
  <wpt lat="44.8009" lon="6.36589">
    <ele>2016.2</ele>
    <name><![CDATA[Passerelle sur le ruisseau de Chanteloube]]></name>
  </wpt>
  <wpt lat="44.79287" lon="6.36504">
    <ele>2131</ele>
    <name><![CDATA[1er ressaut]]></name>
  </wpt>
  <wpt lat="44.79042" lon="6.36483">
    <ele>2165</ele>
    <name><![CDATA[2ème ressaut]]></name>
  </wpt>
  <wpt lat="44.78733" lon="6.36223">
    <ele>2279.1</ele>
    <name><![CDATA[Champ Rond]]></name>
  </wpt>
  <wpt lat="44.78227" lon="6.35819">
    <ele>2498.2</ele>
    <name><![CDATA[Torrent de la Saume]]></name>
  </wpt>
  <wpt lat="44.76133" lon="6.34075">
    <ele>2074.9</ele>
    <name><![CDATA[Cabanes de Rougnoux]]></name>
  </wpt>
  <wpt lat="44.7633" lon="6.33688">
    <ele>1969.9</ele>
    <name><![CDATA[Passerelle sur le torrent de Rougnoux]]></name>
  </wpt>
  <wpt lat="44.7672" lon="6.32888">
    <ele>1831.2</ele>
    <name><![CDATA[Bivouac du refuge du Pré de la Chaumette]]></name>
  </wpt>
  <wpt lat="44.7729" lon="6.31142">
    <ele>2512.9</ele>
    <name><![CDATA[Sous le Puy de la Chaumette]]></name>
  </wpt>
  <wpt lat="44.81151" lon="6.29603">
    <ele>1704.7</ele>
    <name><![CDATA[Passerelle sur le torrent de Vallonpierre]]></name>
  </wpt>
  <wpt lat="44.81485" lon="6.29576">
    <ele>1660.5</ele>
    <name><![CDATA[Torrent de Vallonpierre]]></name>
  </wpt>
  <wpt lat="44.82482" lon="6.29325">
    <ele>1569.6</ele>
    <name><![CDATA[Passerelle sur la Séveraisse]]></name>
  </wpt>
  <wpt lat="44.82779" lon="6.29194">
    <ele>1545.2</ele>
    <name><![CDATA[Passerelle sur le Torrent de Pis Baumette]]></name>
  </wpt>
  <wpt lat="44.83173" lon="6.28114">
    <ele>1439</ele>
    <name><![CDATA[Passerelle sur le Torrent du Gioberney]]></name>
  </wpt>
  <wpt lat="44.8266" lon="6.26079">
    <ele>1402.8</ele>
    <name><![CDATA[Rif du Sap]]></name>
  </wpt>
  <wpt lat="44.82438" lon="6.23313">
    <ele>1174.1</ele>
    <name><![CDATA[Pont du Hameau du Bourg]]></name>
  </wpt>
  <wpt lat="44.81982" lon="6.21913">
    <ele>1151.2</ele>
    <name><![CDATA[Passerelle du Casset]]></name>
  </wpt>
  <trk>
    <name><![CDATA[E6 Pré de la Chaumette - La Chapelle-en-Valgaudémar]]></name>
    <trkseg>
      <trkpt lat="44.76555" lon="6.32793">
        <ele>1807</ele>
        <time>2016-09-02T06:21:14+02:00</time>
      </trkpt>
      <trkpt lat="44.76575" lon="6.32809">
        <ele>1809</ele>
        <time>2016-09-02T06:21:42+02:00</time>
      </trkpt>
      <trkpt lat="44.76597" lon="6.32808">
        <ele>1812</ele>
        <time>2016-09-02T06:22:18+02:00</time>
      </trkpt>
      <trkpt lat="44.7662" lon="6.32814">
        <ele>1814</ele>
        <time>2016-09-02T06:22:40+02:00</time>
      </trkpt>
      <trkpt lat="44.76642" lon="6.32821">
        <ele>1816</ele>
        <time>2016-09-02T06:23:05+02:00</time>
      </trkpt>
      <trkpt lat="44.76663" lon="6.32834">
        <ele>1818</ele>
        <time>2016-09-02T06:23:32+02:00</time>
      </trkpt>
      <trkpt lat="44.76683" lon="6.32849">
        <ele>1822</ele>
        <time>2016-09-02T06:24:03+02:00</time>
      </trkpt>
      <trkpt lat="44.76702" lon="6.32867">
        <ele>1827</ele>
        <time>2016-09-02T06:24:39+02:00</time>
      </trkpt>
      <trkpt lat="44.76723" lon="6.32878">
        <ele>1831</ele>
        <time>2016-09-02T06:25:11+02:00</time>
      </trkpt>
      <trkpt lat="44.76743" lon="6.32894">
        <ele>1834</ele>
        <time>2016-09-02T06:25:43+02:00</time>
      </trkpt>
      <trkpt lat="44.76762" lon="6.3291">
        <ele>1840</ele>
        <time>2016-09-02T06:26:16+02:00</time>
      </trkpt>
      <trkpt lat="44.7678" lon="6.3293">
        <ele>1846</ele>
        <time>2016-09-02T06:26:57+02:00</time>
      </trkpt>
      <trkpt lat="44.76802" lon="6.3294">
        <ele>1852</ele>
        <time>2016-09-02T06:27:28+02:00</time>
      </trkpt>
      <trkpt lat="44.76821" lon="6.32957">
        <ele>1856</ele>
        <time>2016-09-02T06:28:11+02:00</time>
      </trkpt>
      <trkpt lat="44.76842" lon="6.32971">
        <ele>1859</ele>
        <time>2016-09-02T06:28:51+02:00</time>
      </trkpt>
      <trkpt lat="44.76863" lon="6.32962">
        <ele>1867</ele>
        <time>2016-09-02T06:29:43+02:00</time>
      </trkpt>
      <trkpt lat="44.76885" lon="6.32951">
        <ele>1875</ele>
        <time>2016-09-02T06:30:33+02:00</time>
      </trkpt>
      <trkpt lat="44.76907" lon="6.32942">
        <ele>1884</ele>
        <time>2016-09-02T06:31:17+02:00</time>
      </trkpt>
      <trkpt lat="44.76928" lon="6.32933">
        <ele>1891</ele>
        <time>2016-09-02T06:33:55+02:00</time>
      </trkpt>
      <trkpt lat="44.76949" lon="6.32919">
        <ele>1897</ele>
        <time>2016-09-02T06:35:17+02:00</time>
      </trkpt>
      <trkpt lat="44.76971" lon="6.32911">
        <ele>1903</ele>
        <time>2016-09-02T06:35:52+02:00</time>
      </trkpt>
      <trkpt lat="44.76994" lon="6.32915">
        <ele>1903</ele>
        <time>2016-09-02T06:36:38+02:00</time>
      </trkpt>
      <trkpt lat="44.77016" lon="6.32924">
        <ele>1904</ele>
        <time>2016-09-02T06:37:58+02:00</time>
      </trkpt>
      <trkpt lat="44.77038" lon="6.32925">
        <ele>1909</ele>
        <time>2016-09-02T06:38:42+02:00</time>
      </trkpt>
      <trkpt lat="44.77081" lon="6.32918">
        <ele>1919</ele>
        <time>2016-09-02T06:40:36+02:00</time>
      </trkpt>
      <trkpt lat="44.77103" lon="6.32926">
        <ele>1917</ele>
        <time>2016-09-02T06:41:12+02:00</time>
      </trkpt>
      <trkpt lat="44.77126" lon="6.32928">
        <ele>1917</ele>
        <time>2016-09-02T06:41:48+02:00</time>
      </trkpt>
      <trkpt lat="44.77148" lon="6.32919">
        <ele>1919</ele>
        <time>2016-09-02T06:42:17+02:00</time>
      </trkpt>
      <trkpt lat="44.77168" lon="6.32903">
        <ele>1927</ele>
        <time>2016-09-02T06:43:12+02:00</time>
      </trkpt>
      <trkpt lat="44.7719" lon="6.32896">
        <ele>1930</ele>
        <time>2016-09-02T06:43:39+02:00</time>
      </trkpt>
      <trkpt lat="44.77213" lon="6.32891">
        <ele>1933</ele>
        <time>2016-09-02T06:44:35+02:00</time>
      </trkpt>
      <trkpt lat="44.77234" lon="6.32875">
        <ele>1938</ele>
        <time>2016-09-02T06:45:37+02:00</time>
      </trkpt>
      <trkpt lat="44.77255" lon="6.32865">
        <ele>1941</ele>
        <time>2016-09-02T06:46:53+02:00</time>
      </trkpt>
      <trkpt lat="44.77276" lon="6.32852">
        <ele>1946</ele>
        <time>2016-09-02T06:47:37+02:00</time>
      </trkpt>
      <trkpt lat="44.77296" lon="6.32836">
        <ele>1951</ele>
        <time>2016-09-02T06:48:13+02:00</time>
      </trkpt>
      <trkpt lat="44.77318" lon="6.32831">
        <ele>1953</ele>
        <time>2016-09-02T06:48:50+02:00</time>
      </trkpt>
      <trkpt lat="44.77338" lon="6.32814">
        <ele>1963</ele>
        <time>2016-09-02T06:50:28+02:00</time>
      </trkpt>
      <trkpt lat="44.77359" lon="6.32802">
        <ele>1970</ele>
        <time>2016-09-02T06:51:17+02:00</time>
      </trkpt>
      <trkpt lat="44.77368" lon="6.32773">
        <ele>1982</ele>
        <time>2016-09-02T06:52:12+02:00</time>
      </trkpt>
      <trkpt lat="44.7739" lon="6.32764">
        <ele>1984</ele>
        <time>2016-09-02T06:53:10+02:00</time>
      </trkpt>
      <trkpt lat="44.77413" lon="6.32762">
        <ele>1982</ele>
        <time>2016-09-02T06:55:44+02:00</time>
      </trkpt>
      <trkpt lat="44.77432" lon="6.32746">
        <ele>1989</ele>
        <time>2016-09-02T06:56:44+02:00</time>
      </trkpt>
      <trkpt lat="44.77453" lon="6.32733">
        <ele>1998</ele>
        <time>2016-09-02T06:57:46+02:00</time>
      </trkpt>
      <trkpt lat="44.77475" lon="6.32738">
        <ele>2000</ele>
        <time>2016-09-02T06:58:24+02:00</time>
      </trkpt>
      <trkpt lat="44.77494" lon="6.32756">
        <ele>1998</ele>
        <time>2016-09-02T06:59:04+02:00</time>
      </trkpt>
      <trkpt lat="44.77513" lon="6.32775">
        <ele>2002</ele>
        <time>2016-09-02T06:59:44+02:00</time>
      </trkpt>
      <trkpt lat="44.77533" lon="6.3279">
        <ele>2007</ele>
        <time>2016-09-02T07:00:21+02:00</time>
      </trkpt>
      <trkpt lat="44.77551" lon="6.32809">
        <ele>2011</ele>
        <time>2016-09-02T07:01:02+02:00</time>
      </trkpt>
      <trkpt lat="44.77564" lon="6.32782">
        <ele>2019</ele>
        <time>2016-09-02T07:02:20+02:00</time>
      </trkpt>
      <trkpt lat="44.77573" lon="6.32753">
        <ele>2026</ele>
        <time>2016-09-02T07:02:58+02:00</time>
      </trkpt>
      <trkpt lat="44.77582" lon="6.32724">
        <ele>2034</ele>
        <time>2016-09-02T07:03:39+02:00</time>
      </trkpt>
      <trkpt lat="44.77605" lon="6.32729">
        <ele>2038</ele>
        <time>2016-09-02T07:04:57+02:00</time>
      </trkpt>
      <trkpt lat="44.77623" lon="6.32748">
        <ele>2039</ele>
        <time>2016-09-02T07:05:35+02:00</time>
      </trkpt>
      <trkpt lat="44.7763" lon="6.32718">
        <ele>2046</ele>
        <time>2016-09-02T07:07:29+02:00</time>
      </trkpt>
      <trkpt lat="44.77652" lon="6.32714">
        <ele>2052</ele>
        <time>2016-09-02T07:08:28+02:00</time>
      </trkpt>
      <trkpt lat="44.77664" lon="6.32686">
        <ele>2060</ele>
        <time>2016-09-02T07:09:29+02:00</time>
      </trkpt>
      <trkpt lat="44.77684" lon="6.32702">
        <ele>2062</ele>
        <time>2016-09-02T07:10:07+02:00</time>
      </trkpt>
      <trkpt lat="44.77705" lon="6.32689">
        <ele>2070</ele>
        <time>2016-09-02T07:11:21+02:00</time>
      </trkpt>
      <trkpt lat="44.77706" lon="6.32657">
        <ele>2076</ele>
        <time>2016-09-02T07:12:01+02:00</time>
      </trkpt>
      <trkpt lat="44.77715" lon="6.32627">
        <ele>2084</ele>
        <time>2016-09-02T07:12:45+02:00</time>
      </trkpt>
      <trkpt lat="44.77704" lon="6.32598">
        <ele>2088</ele>
        <time>2016-09-02T07:13:27+02:00</time>
      </trkpt>
      <trkpt lat="44.77686" lon="6.32577">
        <ele>2092</ele>
        <time>2016-09-02T07:14:01+02:00</time>
      </trkpt>
      <trkpt lat="44.77709" lon="6.32571">
        <ele>2098</ele>
        <time>2016-09-02T07:14:59+02:00</time>
      </trkpt>
      <trkpt lat="44.77693" lon="6.32548">
        <ele>2105</ele>
        <time>2016-09-02T07:15:51+02:00</time>
      </trkpt>
      <trkpt lat="44.77679" lon="6.32521">
        <ele>2113</ele>
        <time>2016-09-02T07:16:38+02:00</time>
      </trkpt>
      <trkpt lat="44.77657" lon="6.32522">
        <ele>2111</ele>
        <time>2016-09-02T07:17:12+02:00</time>
      </trkpt>
      <trkpt lat="44.77634" lon="6.32527">
        <ele>2112</ele>
        <time>2016-09-02T07:17:46+02:00</time>
      </trkpt>
      <trkpt lat="44.77612" lon="6.32526">
        <ele>2114</ele>
        <time>2016-09-02T07:18:16+02:00</time>
      </trkpt>
      <trkpt lat="44.7759" lon="6.32517">
        <ele>2122</ele>
        <time>2016-09-02T07:19:06+02:00</time>
      </trkpt>
      <trkpt lat="44.77572" lon="6.32499">
        <ele>2133</ele>
        <time>2016-09-02T07:19:54+02:00</time>
      </trkpt>
      <trkpt lat="44.77549" lon="6.32506">
        <ele>2130</ele>
        <time>2016-09-02T07:20:38+02:00</time>
      </trkpt>
      <trkpt lat="44.77527" lon="6.32497">
        <ele>2135</ele>
        <time>2016-09-02T07:21:24+02:00</time>
      </trkpt>
      <trkpt lat="44.77505" lon="6.32488">
        <ele>2139</ele>
        <time>2016-09-02T07:22:20+02:00</time>
      </trkpt>
      <trkpt lat="44.77482" lon="6.32483">
        <ele>2138</ele>
        <time>2016-09-02T07:23:04+02:00</time>
      </trkpt>
      <trkpt lat="44.77459" lon="6.32477">
        <ele>2135</ele>
        <time>2016-09-02T07:24:03+02:00</time>
      </trkpt>
      <trkpt lat="44.77442" lon="6.32457">
        <ele>2141</ele>
        <time>2016-09-02T07:25:06+02:00</time>
      </trkpt>
      <trkpt lat="44.77449" lon="6.32426">
        <ele>2158</ele>
        <time>2016-09-02T07:36:19+02:00</time>
      </trkpt>
      <trkpt lat="44.77455" lon="6.32395">
        <ele>2170</ele>
        <time>2016-09-02T07:37:04+02:00</time>
      </trkpt>
      <trkpt lat="44.77451" lon="6.32362">
        <ele>2179</ele>
        <time>2016-09-02T07:38:03+02:00</time>
      </trkpt>
      <trkpt lat="44.77443" lon="6.32332">
        <ele>2186</ele>
        <time>2016-09-02T07:39:19+02:00</time>
      </trkpt>
      <trkpt lat="44.77434" lon="6.32302">
        <ele>2193</ele>
        <time>2016-09-02T07:39:47+02:00</time>
      </trkpt>
      <trkpt lat="44.77421" lon="6.32276">
        <ele>2196</ele>
        <time>2016-09-02T07:40:46+02:00</time>
      </trkpt>
      <trkpt lat="44.77404" lon="6.32252">
        <ele>2200</ele>
        <time>2016-09-02T07:41:26+02:00</time>
      </trkpt>
      <trkpt lat="44.77393" lon="6.32223">
        <ele>2208</ele>
        <time>2016-09-02T07:41:56+02:00</time>
      </trkpt>
      <trkpt lat="44.77374" lon="6.32206">
        <ele>2211</ele>
        <time>2016-09-02T07:42:33+02:00</time>
      </trkpt>
      <trkpt lat="44.77381" lon="6.32174">
        <ele>2222</ele>
        <time>2016-09-02T07:43:49+02:00</time>
      </trkpt>
      <trkpt lat="44.77404" lon="6.32175">
        <ele>2226</ele>
        <time>2016-09-02T07:44:25+02:00</time>
      </trkpt>
      <trkpt lat="44.77388" lon="6.32152">
        <ele>2232</ele>
        <time>2016-09-02T07:45:54+02:00</time>
      </trkpt>
      <trkpt lat="44.77376" lon="6.32122">
        <ele>2242</ele>
        <time>2016-09-02T07:46:44+02:00</time>
      </trkpt>
      <trkpt lat="44.77396" lon="6.32139">
        <ele>2239</ele>
        <time>2016-09-02T07:47:23+02:00</time>
      </trkpt>
      <trkpt lat="44.77419" lon="6.32149">
        <ele>2239</ele>
        <time>2016-09-02T07:48:06+02:00</time>
      </trkpt>
      <trkpt lat="44.77442" lon="6.32139">
        <ele>2251</ele>
        <time>2016-09-02T07:48:50+02:00</time>
      </trkpt>
      <trkpt lat="44.77464" lon="6.3214">
        <ele>2259</ele>
        <time>2016-09-02T07:49:19+02:00</time>
      </trkpt>
      <trkpt lat="44.77486" lon="6.32148">
        <ele>2263</ele>
        <time>2016-09-02T07:49:48+02:00</time>
      </trkpt>
      <trkpt lat="44.77506" lon="6.32166">
        <ele>2262</ele>
        <time>2016-09-02T07:51:50+02:00</time>
      </trkpt>
      <trkpt lat="44.77504" lon="6.32134">
        <ele>2274</ele>
        <time>2016-09-02T07:53:22+02:00</time>
      </trkpt>
      <trkpt lat="44.7751" lon="6.32104">
        <ele>2287</ele>
        <time>2016-09-02T07:56:00+02:00</time>
      </trkpt>
      <trkpt lat="44.7751" lon="6.32072">
        <ele>2300</ele>
        <time>2016-09-02T07:57:14+02:00</time>
      </trkpt>
      <trkpt lat="44.77496" lon="6.32047">
        <ele>2306</ele>
        <time>2016-09-02T07:57:50+02:00</time>
      </trkpt>
      <trkpt lat="44.7748" lon="6.32024">
        <ele>2310</ele>
        <time>2016-09-02T07:58:35+02:00</time>
      </trkpt>
      <trkpt lat="44.77463" lon="6.32003">
        <ele>2315</ele>
        <time>2016-09-02T07:59:06+02:00</time>
      </trkpt>
      <trkpt lat="44.77454" lon="6.31973">
        <ele>2324</ele>
        <time>2016-09-02T07:59:51+02:00</time>
      </trkpt>
      <trkpt lat="44.77453" lon="6.31941">
        <ele>2335</ele>
        <time>2016-09-02T08:01:54+02:00</time>
      </trkpt>
      <trkpt lat="44.77443" lon="6.31913">
        <ele>2344</ele>
        <time>2016-09-02T08:02:42+02:00</time>
      </trkpt>
      <trkpt lat="44.77422" lon="6.319">
        <ele>2344</ele>
        <time>2016-09-02T08:03:19+02:00</time>
      </trkpt>
      <trkpt lat="44.77399" lon="6.31907">
        <ele>2338</ele>
        <time>2016-09-02T08:03:54+02:00</time>
      </trkpt>
      <trkpt lat="44.77377" lon="6.319">
        <ele>2337</ele>
        <time>2016-09-02T08:04:27+02:00</time>
      </trkpt>
      <trkpt lat="44.77363" lon="6.31875">
        <ele>2342</ele>
        <time>2016-09-02T08:11:21+02:00</time>
      </trkpt>
      <trkpt lat="44.77368" lon="6.31844">
        <ele>2352</ele>
        <time>2016-09-02T08:12:25+02:00</time>
      </trkpt>
      <trkpt lat="44.7737" lon="6.31812">
        <ele>2361</ele>
        <time>2016-09-02T08:12:59+02:00</time>
      </trkpt>
      <trkpt lat="44.77373" lon="6.31781">
        <ele>2369</ele>
        <time>2016-09-02T08:13:28+02:00</time>
      </trkpt>
      <trkpt lat="44.77369" lon="6.31749">
        <ele>2376</ele>
        <time>2016-09-02T08:19:42+02:00</time>
      </trkpt>
      <trkpt lat="44.77371" lon="6.31718">
        <ele>2384</ele>
        <time>2016-09-02T08:21:01+02:00</time>
      </trkpt>
      <trkpt lat="44.7737" lon="6.31685">
        <ele>2391</ele>
        <time>2016-09-02T08:21:50+02:00</time>
      </trkpt>
      <trkpt lat="44.77382" lon="6.31658">
        <ele>2398</ele>
        <time>2016-09-02T08:22:31+02:00</time>
      </trkpt>
      <trkpt lat="44.77388" lon="6.31627">
        <ele>2405</ele>
        <time>2016-09-02T08:23:05+02:00</time>
      </trkpt>
      <trkpt lat="44.77392" lon="6.31596">
        <ele>2412</ele>
        <time>2016-09-02T08:24:15+02:00</time>
      </trkpt>
      <trkpt lat="44.77396" lon="6.31564">
        <ele>2419</ele>
        <time>2016-09-02T08:25:00+02:00</time>
      </trkpt>
      <trkpt lat="44.77398" lon="6.31532">
        <ele>2427</ele>
        <time>2016-09-02T08:25:49+02:00</time>
      </trkpt>
      <trkpt lat="44.77401" lon="6.315">
        <ele>2434</ele>
        <time>2016-09-02T08:27:11+02:00</time>
      </trkpt>
      <trkpt lat="44.77404" lon="6.31469">
        <ele>2440</ele>
        <time>2016-09-02T08:30:59+02:00</time>
      </trkpt>
      <trkpt lat="44.77404" lon="6.31435">
        <ele>2446</ele>
        <time>2016-09-02T08:32:05+02:00</time>
      </trkpt>
      <trkpt lat="44.77398" lon="6.31405">
        <ele>2453</ele>
        <time>2016-09-02T08:32:48+02:00</time>
      </trkpt>
      <trkpt lat="44.77392" lon="6.31374">
        <ele>2459</ele>
        <time>2016-09-02T08:33:28+02:00</time>
      </trkpt>
      <trkpt lat="44.77382" lon="6.31345">
        <ele>2465</ele>
        <time>2016-09-02T08:34:19+02:00</time>
      </trkpt>
      <trkpt lat="44.77369" lon="6.3132">
        <ele>2473</ele>
        <time>2016-09-02T08:35:22+02:00</time>
      </trkpt>
      <trkpt lat="44.77349" lon="6.31303">
        <ele>2479</ele>
        <time>2016-09-02T08:35:52+02:00</time>
      </trkpt>
      <trkpt lat="44.77327" lon="6.31295">
        <ele>2488</ele>
        <time>2016-09-02T08:37:42+02:00</time>
      </trkpt>
      <trkpt lat="44.77317" lon="6.31267">
        <ele>2499</ele>
        <time>2016-09-02T08:39:30+02:00</time>
      </trkpt>
      <trkpt lat="44.77319" lon="6.3123">
        <ele>2502</ele>
        <time>2016-09-02T08:40:47+02:00</time>
      </trkpt>
      <trkpt lat="44.77314" lon="6.31198">
        <ele>2509</ele>
        <time>2016-09-02T08:43:10+02:00</time>
      </trkpt>
      <trkpt lat="44.77299" lon="6.31172">
        <ele>2519</ele>
        <time>2016-09-02T08:44:46+02:00</time>
      </trkpt>
      <trkpt lat="44.7729" lon="6.31142">
        <ele>2525</ele>
        <time>2016-09-02T08:46:25+02:00</time>
      </trkpt>
      <trkpt lat="44.77298" lon="6.31112">
        <ele>2525</ele>
        <time>2016-09-02T08:47:12+02:00</time>
      </trkpt>
      <trkpt lat="44.773" lon="6.31078">
        <ele>2527</ele>
        <time>2016-09-02T08:49:21+02:00</time>
      </trkpt>
      <trkpt lat="44.773" lon="6.31046">
        <ele>2533</ele>
        <time>2016-09-02T08:50:13+02:00</time>
      </trkpt>
      <trkpt lat="44.77304" lon="6.31013">
        <ele>2538</ele>
        <time>2016-09-02T08:51:14+02:00</time>
      </trkpt>
      <trkpt lat="44.77302" lon="6.30981">
        <ele>2547</ele>
        <time>2016-09-02T08:52:43+02:00</time>
      </trkpt>
      <trkpt lat="44.77302" lon="6.30949">
        <ele>2558</ele>
        <time>2016-09-02T08:53:34+02:00</time>
      </trkpt>
      <trkpt lat="44.77301" lon="6.30917">
        <ele>2569</ele>
        <time>2016-09-02T08:55:12+02:00</time>
      </trkpt>
      <trkpt lat="44.77305" lon="6.30885">
        <ele>2578</ele>
        <time>2016-09-02T08:57:05+02:00</time>
      </trkpt>
      <trkpt lat="44.77311" lon="6.30854">
        <ele>2585</ele>
        <time>2016-09-02T08:57:46+02:00</time>
      </trkpt>
      <trkpt lat="44.77315" lon="6.30821">
        <ele>2593</ele>
        <time>2016-09-02T08:58:57+02:00</time>
      </trkpt>
      <trkpt lat="44.77324" lon="6.30791">
        <ele>2597</ele>
        <time>2016-09-02T08:59:36+02:00</time>
      </trkpt>
      <trkpt lat="44.7733" lon="6.30759">
        <ele>2603</ele>
        <time>2016-09-02T09:00:34+02:00</time>
      </trkpt>
      <trkpt lat="44.77322" lon="6.3073">
        <ele>2617</ele>
        <time>2016-09-02T09:02:22+02:00</time>
      </trkpt>
      <trkpt lat="44.77321" lon="6.30696">
        <ele>2626</ele>
        <time>2016-09-02T09:04:06+02:00</time>
      </trkpt>
      <trkpt lat="44.77327" lon="6.30666">
        <ele>2633</ele>
        <time>2016-09-02T09:05:09+02:00</time>
      </trkpt>
      <trkpt lat="44.77326" lon="6.30634">
        <ele>2645</ele>
        <time>2016-09-02T09:06:47+02:00</time>
      </trkpt>
      <trkpt lat="44.77304" lon="6.30623">
        <ele>2650</ele>
        <time>2016-09-02T09:09:19+02:00</time>
      </trkpt>
      <trkpt lat="44.77308" lon="6.30591">
        <ele>2661</ele>
        <time>2016-09-02T09:10:29+02:00</time>
      </trkpt>
      <trkpt lat="44.7732" lon="6.30565">
        <ele>2666</ele>
        <time>2016-09-02T09:11:11+02:00</time>
      </trkpt>
      <trkpt lat="44.77339" lon="6.30548">
        <ele>2665</ele>
        <time>2016-09-02T09:11:53+02:00</time>
      </trkpt>
      <trkpt lat="44.7736" lon="6.30534">
        <ele>2659</ele>
        <time>2016-09-02T09:28:30+02:00</time>
      </trkpt>
      <trkpt lat="44.7738" lon="6.30517">
        <ele>2651</ele>
        <time>2016-09-02T09:29:00+02:00</time>
      </trkpt>
      <trkpt lat="44.77396" lon="6.30496">
        <ele>2639</ele>
        <time>2016-09-02T09:29:56+02:00</time>
      </trkpt>
      <trkpt lat="44.77403" lon="6.30464">
        <ele>2626</ele>
        <time>2016-09-02T09:31:30+02:00</time>
      </trkpt>
      <trkpt lat="44.77415" lon="6.30437">
        <ele>2611</ele>
        <time>2016-09-02T09:32:27+02:00</time>
      </trkpt>
      <trkpt lat="44.77437" lon="6.30442">
        <ele>2610</ele>
        <time>2016-09-02T09:32:50+02:00</time>
      </trkpt>
      <trkpt lat="44.77426" lon="6.30413">
        <ele>2601</ele>
        <time>2016-09-02T09:33:30+02:00</time>
      </trkpt>
      <trkpt lat="44.77427" lon="6.3038">
        <ele>2582</ele>
        <time>2016-09-02T09:33:55+02:00</time>
      </trkpt>
      <trkpt lat="44.7744" lon="6.30354">
        <ele>2567</ele>
        <time>2016-09-02T09:34:48+02:00</time>
      </trkpt>
      <trkpt lat="44.77463" lon="6.30355">
        <ele>2566</ele>
        <time>2016-09-02T09:35:32+02:00</time>
      </trkpt>
      <trkpt lat="44.77482" lon="6.30334">
        <ele>2556</ele>
        <time>2016-09-02T09:35:50+02:00</time>
      </trkpt>
      <trkpt lat="44.77488" lon="6.30304">
        <ele>2542</ele>
        <time>2016-09-02T09:36:15+02:00</time>
      </trkpt>
      <trkpt lat="44.775" lon="6.30276">
        <ele>2530</ele>
        <time>2016-09-02T09:36:54+02:00</time>
      </trkpt>
      <trkpt lat="44.775" lon="6.30243">
        <ele>2516</ele>
        <time>2016-09-02T09:37:14+02:00</time>
      </trkpt>
      <trkpt lat="44.77521" lon="6.30255">
        <ele>2524</ele>
        <time>2016-09-02T09:37:44+02:00</time>
      </trkpt>
      <trkpt lat="44.77541" lon="6.30238">
        <ele>2521</ele>
        <time>2016-09-02T09:38:37+02:00</time>
      </trkpt>
      <trkpt lat="44.77553" lon="6.30211">
        <ele>2514</ele>
        <time>2016-09-02T09:38:59+02:00</time>
      </trkpt>
      <trkpt lat="44.77557" lon="6.30178">
        <ele>2504</ele>
        <time>2016-09-02T09:39:17+02:00</time>
      </trkpt>
      <trkpt lat="44.7756" lon="6.30146">
        <ele>2498</ele>
        <time>2016-09-02T09:39:38+02:00</time>
      </trkpt>
      <trkpt lat="44.77568" lon="6.30115">
        <ele>2496</ele>
        <time>2016-09-02T09:40:01+02:00</time>
      </trkpt>
      <trkpt lat="44.77579" lon="6.30087">
        <ele>2495</ele>
        <time>2016-09-02T09:40:21+02:00</time>
      </trkpt>
      <trkpt lat="44.77582" lon="6.30053">
        <ele>2493</ele>
        <time>2016-09-02T09:40:33+02:00</time>
      </trkpt>
      <trkpt lat="44.77586" lon="6.30022">
        <ele>2490</ele>
        <time>2016-09-02T09:40:51+02:00</time>
      </trkpt>
      <trkpt lat="44.77591" lon="6.2999">
        <ele>2487</ele>
        <time>2016-09-02T09:41:11+02:00</time>
      </trkpt>
      <trkpt lat="44.77606" lon="6.29965">
        <ele>2485</ele>
        <time>2016-09-02T09:41:26+02:00</time>
      </trkpt>
      <trkpt lat="44.77618" lon="6.29938">
        <ele>2483</ele>
        <time>2016-09-02T09:41:50+02:00</time>
      </trkpt>
      <trkpt lat="44.77631" lon="6.29909">
        <ele>2482</ele>
        <time>2016-09-02T09:42:13+02:00</time>
      </trkpt>
      <trkpt lat="44.77637" lon="6.29879">
        <ele>2481</ele>
        <time>2016-09-02T09:42:33+02:00</time>
      </trkpt>
      <trkpt lat="44.77654" lon="6.29857">
        <ele>2482</ele>
        <time>2016-09-02T09:42:50+02:00</time>
      </trkpt>
      <trkpt lat="44.77656" lon="6.29825">
        <ele>2482</ele>
        <time>2016-09-02T09:43:10+02:00</time>
      </trkpt>
      <trkpt lat="44.77659" lon="6.29793">
        <ele>2481</ele>
        <time>2016-09-02T09:43:29+02:00</time>
      </trkpt>
      <trkpt lat="44.7767" lon="6.29765">
        <ele>2482</ele>
        <time>2016-09-02T09:43:47+02:00</time>
      </trkpt>
      <trkpt lat="44.77675" lon="6.29733">
        <ele>2483</ele>
        <time>2016-09-02T09:45:09+02:00</time>
      </trkpt>
      <trkpt lat="44.77685" lon="6.29704">
        <ele>2486</ele>
        <time>2016-09-02T09:46:22+02:00</time>
      </trkpt>
      <trkpt lat="44.77694" lon="6.29673">
        <ele>2488</ele>
        <time>2016-09-02T09:46:46+02:00</time>
      </trkpt>
      <trkpt lat="44.77702" lon="6.29643">
        <ele>2491</ele>
        <time>2016-09-02T09:47:11+02:00</time>
      </trkpt>
      <trkpt lat="44.77704" lon="6.2961">
        <ele>2493</ele>
        <time>2016-09-02T09:47:35+02:00</time>
      </trkpt>
      <trkpt lat="44.77705" lon="6.29578">
        <ele>2494</ele>
        <time>2016-09-02T09:48:02+02:00</time>
      </trkpt>
      <trkpt lat="44.77715" lon="6.2955">
        <ele>2498</ele>
        <time>2016-09-02T09:48:24+02:00</time>
      </trkpt>
      <trkpt lat="44.77717" lon="6.29518">
        <ele>2501</ele>
        <time>2016-09-02T09:49:05+02:00</time>
      </trkpt>
      <trkpt lat="44.77717" lon="6.29486">
        <ele>2504</ele>
        <time>2016-09-02T09:49:44+02:00</time>
      </trkpt>
      <trkpt lat="44.77722" lon="6.29454">
        <ele>2509</ele>
        <time>2016-09-02T09:50:20+02:00</time>
      </trkpt>
      <trkpt lat="44.77721" lon="6.29423">
        <ele>2513</ele>
        <time>2016-09-02T09:50:47+02:00</time>
      </trkpt>
      <trkpt lat="44.77717" lon="6.29391">
        <ele>2519</ele>
        <time>2016-09-02T09:51:34+02:00</time>
      </trkpt>
      <trkpt lat="44.77717" lon="6.29359">
        <ele>2527</ele>
        <time>2016-09-02T09:52:02+02:00</time>
      </trkpt>
      <trkpt lat="44.77717" lon="6.29327">
        <ele>2535</ele>
        <time>2016-09-02T09:53:33+02:00</time>
      </trkpt>
      <trkpt lat="44.77723" lon="6.29296">
        <ele>2544</ele>
        <time>2016-09-02T09:54:19+02:00</time>
      </trkpt>
      <trkpt lat="44.77733" lon="6.29267">
        <ele>2553</ele>
        <time>2016-09-02T09:55:23+02:00</time>
      </trkpt>
      <trkpt lat="44.77737" lon="6.29235">
        <ele>2562</ele>
        <time>2016-09-02T09:56:13+02:00</time>
      </trkpt>
      <trkpt lat="44.77724" lon="6.2921">
        <ele>2570</ele>
        <time>2016-09-02T09:57:03+02:00</time>
      </trkpt>
      <trkpt lat="44.77718" lon="6.29179">
        <ele>2579</ele>
        <time>2016-09-02T09:58:21+02:00</time>
      </trkpt>
      <trkpt lat="44.77741" lon="6.2917">
        <ele>2583</ele>
        <time>2016-09-02T09:59:08+02:00</time>
      </trkpt>
      <trkpt lat="44.77743" lon="6.29138">
        <ele>2586</ele>
        <time>2016-09-02T10:01:14+02:00</time>
      </trkpt>
      <trkpt lat="44.7773" lon="6.29112">
        <ele>2590</ele>
        <time>2016-09-02T10:01:57+02:00</time>
      </trkpt>
      <trkpt lat="44.7775" lon="6.29098">
        <ele>2588</ele>
        <time>2016-09-02T10:02:45+02:00</time>
      </trkpt>
      <trkpt lat="44.77745" lon="6.29067">
        <ele>2587</ele>
        <time>2016-09-02T10:04:59+02:00</time>
      </trkpt>
      <trkpt lat="44.77725" lon="6.29049">
        <ele>2589</ele>
        <time>2016-09-02T10:06:13+02:00</time>
      </trkpt>
      <trkpt lat="44.77735" lon="6.29019">
        <ele>2580</ele>
        <time>2016-09-02T10:10:58+02:00</time>
      </trkpt>
      <trkpt lat="44.77754" lon="6.29037">
        <ele>2578</ele>
        <time>2016-09-02T10:11:19+02:00</time>
      </trkpt>
      <trkpt lat="44.77776" lon="6.29023">
        <ele>2573</ele>
        <time>2016-09-02T10:11:36+02:00</time>
      </trkpt>
      <trkpt lat="44.77794" lon="6.29">
        <ele>2563</ele>
        <time>2016-09-02T10:11:52+02:00</time>
      </trkpt>
      <trkpt lat="44.77815" lon="6.28987">
        <ele>2557</ele>
        <time>2016-09-02T10:12:08+02:00</time>
      </trkpt>
      <trkpt lat="44.77835" lon="6.28973">
        <ele>2550</ele>
        <time>2016-09-02T10:12:22+02:00</time>
      </trkpt>
      <trkpt lat="44.77857" lon="6.28963">
        <ele>2546</ele>
        <time>2016-09-02T10:12:40+02:00</time>
      </trkpt>
      <trkpt lat="44.77881" lon="6.28967">
        <ele>2547</ele>
        <time>2016-09-02T10:13:43+02:00</time>
      </trkpt>
      <trkpt lat="44.77901" lon="6.28954">
        <ele>2541</ele>
        <time>2016-09-02T10:13:56+02:00</time>
      </trkpt>
      <trkpt lat="44.77918" lon="6.28931">
        <ele>2531</ele>
        <time>2016-09-02T10:14:13+02:00</time>
      </trkpt>
      <trkpt lat="44.7794" lon="6.28917">
        <ele>2523</ele>
        <time>2016-09-02T10:14:28+02:00</time>
      </trkpt>
      <trkpt lat="44.77962" lon="6.289">
        <ele>2516</ele>
        <time>2016-09-02T10:14:42+02:00</time>
      </trkpt>
      <trkpt lat="44.77982" lon="6.28885">
        <ele>2509</ele>
        <time>2016-09-02T10:15:22+02:00</time>
      </trkpt>
      <trkpt lat="44.78004" lon="6.28873">
        <ele>2502</ele>
        <time>2016-09-02T10:16:21+02:00</time>
      </trkpt>
      <trkpt lat="44.78028" lon="6.28875">
        <ele>2498</ele>
        <time>2016-09-02T10:16:39+02:00</time>
      </trkpt>
      <trkpt lat="44.78052" lon="6.28874">
        <ele>2493</ele>
        <time>2016-09-02T10:16:58+02:00</time>
      </trkpt>
      <trkpt lat="44.78075" lon="6.2888">
        <ele>2490</ele>
        <time>2016-09-02T10:17:18+02:00</time>
      </trkpt>
      <trkpt lat="44.78098" lon="6.28875">
        <ele>2485</ele>
        <time>2016-09-02T10:17:42+02:00</time>
      </trkpt>
      <trkpt lat="44.78121" lon="6.28876">
        <ele>2482</ele>
        <time>2016-09-02T10:18:01+02:00</time>
      </trkpt>
      <trkpt lat="44.78111" lon="6.28847">
        <ele>2472</ele>
        <time>2016-09-02T10:19:16+02:00</time>
      </trkpt>
      <trkpt lat="44.78134" lon="6.28841">
        <ele>2467</ele>
        <time>2016-09-02T10:19:37+02:00</time>
      </trkpt>
      <trkpt lat="44.78157" lon="6.28849">
        <ele>2467</ele>
        <time>2016-09-02T10:19:55+02:00</time>
      </trkpt>
      <trkpt lat="44.78177" lon="6.28835">
        <ele>2463</ele>
        <time>2016-09-02T10:20:19+02:00</time>
      </trkpt>
      <trkpt lat="44.78195" lon="6.28815">
        <ele>2461</ele>
        <time>2016-09-02T10:20:45+02:00</time>
      </trkpt>
      <trkpt lat="44.78217" lon="6.2881">
        <ele>2464</ele>
        <time>2016-09-02T10:21:10+02:00</time>
      </trkpt>
      <trkpt lat="44.78219" lon="6.28778">
        <ele>2453</ele>
        <time>2016-09-02T10:21:40+02:00</time>
      </trkpt>
      <trkpt lat="44.78229" lon="6.28749">
        <ele>2445</ele>
        <time>2016-09-02T10:22:15+02:00</time>
      </trkpt>
      <trkpt lat="44.78245" lon="6.28726">
        <ele>2441</ele>
        <time>2016-09-02T10:22:36+02:00</time>
      </trkpt>
      <trkpt lat="44.7826" lon="6.28701">
        <ele>2436</ele>
        <time>2016-09-02T10:23:06+02:00</time>
      </trkpt>
      <trkpt lat="44.78281" lon="6.2869">
        <ele>2435</ele>
        <time>2016-09-02T10:23:25+02:00</time>
      </trkpt>
      <trkpt lat="44.78304" lon="6.28691">
        <ele>2437</ele>
        <time>2016-09-02T10:23:46+02:00</time>
      </trkpt>
      <trkpt lat="44.78324" lon="6.28676">
        <ele>2435</ele>
        <time>2016-09-02T10:24:10+02:00</time>
      </trkpt>
      <trkpt lat="44.78338" lon="6.28651">
        <ele>2431</ele>
        <time>2016-09-02T10:24:37+02:00</time>
      </trkpt>
      <trkpt lat="44.78342" lon="6.28619">
        <ele>2425</ele>
        <time>2016-09-02T10:24:59+02:00</time>
      </trkpt>
      <trkpt lat="44.78353" lon="6.28591">
        <ele>2421</ele>
        <time>2016-09-02T10:26:46+02:00</time>
      </trkpt>
      <trkpt lat="44.78374" lon="6.28575">
        <ele>2421</ele>
        <time>2016-09-02T10:27:30+02:00</time>
      </trkpt>
      <trkpt lat="44.7839" lon="6.28553">
        <ele>2418</ele>
        <time>2016-09-02T10:27:52+02:00</time>
      </trkpt>
      <trkpt lat="44.78404" lon="6.28527">
        <ele>2414</ele>
        <time>2016-09-02T10:28:16+02:00</time>
      </trkpt>
      <trkpt lat="44.78426" lon="6.28527">
        <ele>2419</ele>
        <time>2016-09-02T10:28:42+02:00</time>
      </trkpt>
      <trkpt lat="44.78448" lon="6.28539">
        <ele>2428</ele>
        <time>2016-09-02T10:29:06+02:00</time>
      </trkpt>
      <trkpt lat="44.78464" lon="6.28516">
        <ele>2430</ele>
        <time>2016-09-02T10:29:50+02:00</time>
      </trkpt>
      <trkpt lat="44.78461" lon="6.28484">
        <ele>2424</ele>
        <time>2016-09-02T10:30:30+02:00</time>
      </trkpt>
      <trkpt lat="44.78462" lon="6.28452">
        <ele>2420</ele>
        <time>2016-09-02T10:30:51+02:00</time>
      </trkpt>
      <trkpt lat="44.78465" lon="6.2842">
        <ele>2417</ele>
        <time>2016-09-02T10:31:10+02:00</time>
      </trkpt>
      <trkpt lat="44.78478" lon="6.28393">
        <ele>2417</ele>
        <time>2016-09-02T10:32:07+02:00</time>
      </trkpt>
      <trkpt lat="44.78495" lon="6.2837">
        <ele>2419</ele>
        <time>2016-09-02T10:33:42+02:00</time>
      </trkpt>
      <trkpt lat="44.78515" lon="6.28355">
        <ele>2424</ele>
        <time>2016-09-02T10:33:56+02:00</time>
      </trkpt>
      <trkpt lat="44.78519" lon="6.28324">
        <ele>2421</ele>
        <time>2016-09-02T10:34:59+02:00</time>
      </trkpt>
      <trkpt lat="44.78527" lon="6.28294">
        <ele>2420</ele>
        <time>2016-09-02T10:35:41+02:00</time>
      </trkpt>
      <trkpt lat="44.7855" lon="6.28294">
        <ele>2431</ele>
        <time>2016-09-02T10:37:36+02:00</time>
      </trkpt>
      <trkpt lat="44.78562" lon="6.2832">
        <ele>2440</ele>
        <time>2016-09-02T10:38:45+02:00</time>
      </trkpt>
      <trkpt lat="44.7858" lon="6.283">
        <ele>2446</ele>
        <time>2016-09-02T10:39:38+02:00</time>
      </trkpt>
      <trkpt lat="44.78594" lon="6.28274">
        <ele>2449</ele>
        <time>2016-09-02T10:40:30+02:00</time>
      </trkpt>
      <trkpt lat="44.78617" lon="6.28273">
        <ele>2461</ele>
        <time>2016-09-02T10:41:02+02:00</time>
      </trkpt>
      <trkpt lat="44.78612" lon="6.28241">
        <ele>2456</ele>
        <time>2016-09-02T10:42:16+02:00</time>
      </trkpt>
      <trkpt lat="44.78633" lon="6.2823">
        <ele>2467</ele>
        <time>2016-09-02T10:42:53+02:00</time>
      </trkpt>
      <trkpt lat="44.78656" lon="6.28224">
        <ele>2478</ele>
        <time>2016-09-02T10:43:37+02:00</time>
      </trkpt>
      <trkpt lat="44.78665" lon="6.28194">
        <ele>2482</ele>
        <time>2016-09-02T10:46:00+02:00</time>
      </trkpt>
      <trkpt lat="44.78655" lon="6.28167">
        <ele>2476</ele>
        <time>2016-09-02T10:46:50+02:00</time>
      </trkpt>
      <trkpt lat="44.7867" lon="6.28143">
        <ele>2482</ele>
        <time>2016-09-02T10:47:27+02:00</time>
      </trkpt>
      <trkpt lat="44.78692" lon="6.28129">
        <ele>2492</ele>
        <time>2016-09-02T10:48:00+02:00</time>
      </trkpt>
      <trkpt lat="44.78715" lon="6.2813">
        <ele>2503</ele>
        <time>2016-09-02T10:48:57+02:00</time>
      </trkpt>
      <trkpt lat="44.78732" lon="6.28108">
        <ele>2512</ele>
        <time>2016-09-02T10:49:31+02:00</time>
      </trkpt>
      <trkpt lat="44.78724" lon="6.28077">
        <ele>2507</ele>
        <time>2016-09-02T10:50:43+02:00</time>
      </trkpt>
      <trkpt lat="44.78734" lon="6.28049">
        <ele>2511</ele>
        <time>2016-09-02T10:51:37+02:00</time>
      </trkpt>
      <trkpt lat="44.78757" lon="6.2805">
        <ele>2524</ele>
        <time>2016-09-02T10:53:26+02:00</time>
      </trkpt>
      <trkpt lat="44.78774" lon="6.28029">
        <ele>2533</ele>
        <time>2016-09-02T10:54:59+02:00</time>
      </trkpt>
      <trkpt lat="44.78797" lon="6.28037">
        <ele>2547</ele>
        <time>2016-09-02T10:56:17+02:00</time>
      </trkpt>
      <trkpt lat="44.78809" lon="6.28065">
        <ele>2557</ele>
        <time>2016-09-02T10:58:04+02:00</time>
      </trkpt>
      <trkpt lat="44.7882" lon="6.28037">
        <ele>2562</ele>
        <time>2016-09-02T10:58:49+02:00</time>
      </trkpt>
      <trkpt lat="44.78837" lon="6.28014">
        <ele>2570</ele>
        <time>2016-09-02T10:59:42+02:00</time>
      </trkpt>
      <trkpt lat="44.78857" lon="6.28029">
        <ele>2583</ele>
        <time>2016-09-02T11:01:26+02:00</time>
      </trkpt>
      <trkpt lat="44.78873" lon="6.28053">
        <ele>2594</ele>
        <time>2016-09-02T11:04:04+02:00</time>
      </trkpt>
      <trkpt lat="44.78879" lon="6.28084">
        <ele>2600</ele>
        <time>2016-09-02T11:05:18+02:00</time>
      </trkpt>
      <trkpt lat="44.78879" lon="6.28116">
        <ele>2601</ele>
        <time>2016-09-02T11:06:08+02:00</time>
      </trkpt>
      <trkpt lat="44.78886" lon="6.28148">
        <ele>2605</ele>
        <time>2016-09-02T11:06:48+02:00</time>
      </trkpt>
      <trkpt lat="44.78902" lon="6.2817">
        <ele>2611</ele>
        <time>2016-09-02T11:16:27+02:00</time>
      </trkpt>
      <trkpt lat="44.78923" lon="6.28181">
        <ele>2613</ele>
        <time>2016-09-02T11:17:35+02:00</time>
      </trkpt>
      <trkpt lat="44.78946" lon="6.28177">
        <ele>2608</ele>
        <time>2016-09-02T11:18:23+02:00</time>
      </trkpt>
      <trkpt lat="44.78968" lon="6.28167">
        <ele>2607</ele>
        <time>2016-09-02T11:18:47+02:00</time>
      </trkpt>
      <trkpt lat="44.78991" lon="6.28165">
        <ele>2602</ele>
        <time>2016-09-02T11:19:13+02:00</time>
      </trkpt>
      <trkpt lat="44.79013" lon="6.28175">
        <ele>2592</ele>
        <time>2016-09-02T11:20:17+02:00</time>
      </trkpt>
      <trkpt lat="44.79035" lon="6.28172">
        <ele>2589</ele>
        <time>2016-09-02T11:20:56+02:00</time>
      </trkpt>
      <trkpt lat="44.79021" lon="6.28197">
        <ele>2581</ele>
        <time>2016-09-02T11:21:29+02:00</time>
      </trkpt>
      <trkpt lat="44.7903" lon="6.28226">
        <ele>2567</ele>
        <time>2016-09-02T11:22:13+02:00</time>
      </trkpt>
      <trkpt lat="44.79038" lon="6.28257">
        <ele>2553</ele>
        <time>2016-09-02T11:23:04+02:00</time>
      </trkpt>
      <trkpt lat="44.79059" lon="6.28245">
        <ele>2554</ele>
        <time>2016-09-02T11:23:33+02:00</time>
      </trkpt>
      <trkpt lat="44.79081" lon="6.28257">
        <ele>2547</ele>
        <time>2016-09-02T11:24:00+02:00</time>
      </trkpt>
      <trkpt lat="44.79104" lon="6.28259">
        <ele>2550</ele>
        <time>2016-09-02T11:24:20+02:00</time>
      </trkpt>
      <trkpt lat="44.79119" lon="6.28283">
        <ele>2545</ele>
        <time>2016-09-02T11:25:00+02:00</time>
      </trkpt>
      <trkpt lat="44.79112" lon="6.28314">
        <ele>2534</ele>
        <time>2016-09-02T11:25:27+02:00</time>
      </trkpt>
      <trkpt lat="44.79106" lon="6.28345">
        <ele>2522</ele>
        <time>2016-09-02T11:25:51+02:00</time>
      </trkpt>
      <trkpt lat="44.79118" lon="6.28373">
        <ele>2515</ele>
        <time>2016-09-02T11:26:16+02:00</time>
      </trkpt>
      <trkpt lat="44.79141" lon="6.28381">
        <ele>2515</ele>
        <time>2016-09-02T11:26:46+02:00</time>
      </trkpt>
      <trkpt lat="44.79162" lon="6.28393">
        <ele>2513</ele>
        <time>2016-09-02T11:27:09+02:00</time>
      </trkpt>
      <trkpt lat="44.79143" lon="6.28411">
        <ele>2504</ele>
        <time>2016-09-02T11:27:52+02:00</time>
      </trkpt>
      <trkpt lat="44.79141" lon="6.28442">
        <ele>2492</ele>
        <time>2016-09-02T11:28:46+02:00</time>
      </trkpt>
      <trkpt lat="44.79121" lon="6.28458">
        <ele>2484</ele>
        <time>2016-09-02T11:29:44+02:00</time>
      </trkpt>
      <trkpt lat="44.79139" lon="6.28478">
        <ele>2478</ele>
        <time>2016-09-02T11:30:20+02:00</time>
      </trkpt>
      <trkpt lat="44.79161" lon="6.28474">
        <ele>2481</ele>
        <time>2016-09-02T11:30:45+02:00</time>
      </trkpt>
      <trkpt lat="44.79145" lon="6.28499">
        <ele>2471</ele>
        <time>2016-09-02T11:32:18+02:00</time>
      </trkpt>
      <trkpt lat="44.79125" lon="6.28515">
        <ele>2464</ele>
        <time>2016-09-02T11:32:38+02:00</time>
      </trkpt>
      <trkpt lat="44.79103" lon="6.28514">
        <ele>2463</ele>
        <time>2016-09-02T11:33:03+02:00</time>
      </trkpt>
      <trkpt lat="44.79119" lon="6.28537">
        <ele>2457</ele>
        <time>2016-09-02T11:33:28+02:00</time>
      </trkpt>
      <trkpt lat="44.79142" lon="6.28539">
        <ele>2457</ele>
        <time>2016-09-02T11:33:51+02:00</time>
      </trkpt>
      <trkpt lat="44.79157" lon="6.28565">
        <ele>2450</ele>
        <time>2016-09-02T11:34:21+02:00</time>
      </trkpt>
      <trkpt lat="44.79177" lon="6.2858">
        <ele>2448</ele>
        <time>2016-09-02T11:34:47+02:00</time>
      </trkpt>
      <trkpt lat="44.79194" lon="6.28601">
        <ele>2447</ele>
        <time>2016-09-02T11:35:12+02:00</time>
      </trkpt>
      <trkpt lat="44.79211" lon="6.28623">
        <ele>2443</ele>
        <time>2016-09-02T11:35:33+02:00</time>
      </trkpt>
      <trkpt lat="44.79229" lon="6.28643">
        <ele>2440</ele>
        <time>2016-09-02T11:35:56+02:00</time>
      </trkpt>
      <trkpt lat="44.79247" lon="6.28664">
        <ele>2435</ele>
        <time>2016-09-02T11:36:17+02:00</time>
      </trkpt>
      <trkpt lat="44.79255" lon="6.28693">
        <ele>2424</ele>
        <time>2016-09-02T11:36:46+02:00</time>
      </trkpt>
      <trkpt lat="44.79274" lon="6.28713">
        <ele>2415</ele>
        <time>2016-09-02T11:37:07+02:00</time>
      </trkpt>
      <trkpt lat="44.79296" lon="6.28726">
        <ele>2409</ele>
        <time>2016-09-02T11:37:32+02:00</time>
      </trkpt>
      <trkpt lat="44.79318" lon="6.2873">
        <ele>2405</ele>
        <time>2016-09-02T11:37:53+02:00</time>
      </trkpt>
      <trkpt lat="44.79341" lon="6.2873">
        <ele>2400</ele>
        <time>2016-09-02T11:40:36+02:00</time>
      </trkpt>
      <trkpt lat="44.79362" lon="6.28717">
        <ele>2397</ele>
        <time>2016-09-02T11:41:04+02:00</time>
      </trkpt>
      <trkpt lat="44.79384" lon="6.28706">
        <ele>2392</ele>
        <time>2016-09-02T11:41:36+02:00</time>
      </trkpt>
      <trkpt lat="44.79404" lon="6.2869">
        <ele>2390</ele>
        <time>2016-09-02T11:41:59+02:00</time>
      </trkpt>
      <trkpt lat="44.79426" lon="6.2868">
        <ele>2385</ele>
        <time>2016-09-02T11:42:23+02:00</time>
      </trkpt>
      <trkpt lat="44.79447" lon="6.2867">
        <ele>2381</ele>
        <time>2016-09-02T11:42:49+02:00</time>
      </trkpt>
      <trkpt lat="44.79469" lon="6.28659">
        <ele>2377</ele>
        <time>2016-09-02T11:43:16+02:00</time>
      </trkpt>
      <trkpt lat="44.79458" lon="6.28687">
        <ele>2372</ele>
        <time>2016-09-02T11:43:52+02:00</time>
      </trkpt>
      <trkpt lat="44.79444" lon="6.28713">
        <ele>2369</ele>
        <time>2016-09-02T11:44:17+02:00</time>
      </trkpt>
      <trkpt lat="44.79429" lon="6.28737">
        <ele>2365</ele>
        <time>2016-09-02T11:44:41+02:00</time>
      </trkpt>
      <trkpt lat="44.79453" lon="6.28736">
        <ele>2359</ele>
        <time>2016-09-02T11:45:18+02:00</time>
      </trkpt>
      <trkpt lat="44.79476" lon="6.28732">
        <ele>2354</ele>
        <time>2016-09-02T11:45:38+02:00</time>
      </trkpt>
      <trkpt lat="44.79499" lon="6.28736">
        <ele>2346</ele>
        <time>2016-09-02T11:46:05+02:00</time>
      </trkpt>
      <trkpt lat="44.79521" lon="6.28742">
        <ele>2339</ele>
        <time>2016-09-02T11:46:30+02:00</time>
      </trkpt>
      <trkpt lat="44.79544" lon="6.28748">
        <ele>2333</ele>
        <time>2016-09-02T11:46:53+02:00</time>
      </trkpt>
      <trkpt lat="44.79568" lon="6.28746">
        <ele>2327</ele>
        <time>2016-09-02T11:47:18+02:00</time>
      </trkpt>
      <trkpt lat="44.7959" lon="6.28747">
        <ele>2322</ele>
        <time>2016-09-02T11:47:38+02:00</time>
      </trkpt>
      <trkpt lat="44.79611" lon="6.28733">
        <ele>2319</ele>
        <time>2016-09-02T11:48:12+02:00</time>
      </trkpt>
      <trkpt lat="44.79633" lon="6.28745">
        <ele>2312</ele>
        <time>2016-09-02T11:48:39+02:00</time>
      </trkpt>
      <trkpt lat="44.79651" lon="6.28768">
        <ele>2305</ele>
        <time>2016-09-02T11:49:08+02:00</time>
      </trkpt>
      <trkpt lat="44.79671" lon="6.28781">
        <ele>2299</ele>
        <time>2016-09-02T11:49:33+02:00</time>
      </trkpt>
      <trkpt lat="44.79692" lon="6.28794">
        <ele>2295</ele>
        <time>2016-09-02T11:49:54+02:00</time>
      </trkpt>
      <trkpt lat="44.79712" lon="6.2881">
        <ele>2292</ele>
        <time>2016-09-02T11:50:14+02:00</time>
      </trkpt>
      <trkpt lat="44.79734" lon="6.2882">
        <ele>2289</ele>
        <time>2016-09-02T11:50:33+02:00</time>
      </trkpt>
      <trkpt lat="44.79755" lon="6.28833">
        <ele>2287</ele>
        <time>2016-09-02T11:50:55+02:00</time>
      </trkpt>
      <trkpt lat="44.79778" lon="6.28844">
        <ele>2285</ele>
        <time>2016-09-02T11:51:13+02:00</time>
      </trkpt>
      <trkpt lat="44.79799" lon="6.28859">
        <ele>2284</ele>
        <time>2016-09-02T11:51:31+02:00</time>
      </trkpt>
      <trkpt lat="44.79817" lon="6.28877">
        <ele>2282</ele>
        <time>2016-09-02T11:51:55+02:00</time>
      </trkpt>
      <trkpt lat="44.79833" lon="6.289">
        <ele>2280</ele>
        <time>2016-09-02T11:54:05+02:00</time>
      </trkpt>
      <trkpt lat="44.79846" lon="6.28926">
        <ele>2278</ele>
        <time>2016-09-02T11:55:25+02:00</time>
      </trkpt>
      <trkpt lat="44.79844" lon="6.28958">
        <ele>2276</ele>
        <time>2016-09-02T11:57:19+02:00</time>
      </trkpt>
      <trkpt lat="44.79847" lon="6.2899">
        <ele>2274</ele>
        <time>2016-09-02T11:57:54+02:00</time>
      </trkpt>
      <trkpt lat="44.79836" lon="6.29021">
        <ele>2273</ele>
        <time>2016-09-02T11:58:37+02:00</time>
      </trkpt>
      <trkpt lat="44.79815" lon="6.29036">
        <ele>2273</ele>
        <time>2016-09-02T11:59:10+02:00</time>
      </trkpt>
      <trkpt lat="44.7981" lon="6.29068">
        <ele>2273</ele>
        <time>2016-09-02T11:59:43+02:00</time>
      </trkpt>
      <trkpt lat="44.798" lon="6.29097">
        <ele>2272</ele>
        <time>2016-09-02T12:01:43+02:00</time>
      </trkpt>
      <trkpt lat="44.79796" lon="6.29128">
        <ele>2271</ele>
        <time>2016-09-02T12:02:03+02:00</time>
      </trkpt>
      <trkpt lat="44.79804" lon="6.29161">
        <ele>2270</ele>
        <time>2016-09-02T12:02:43+02:00</time>
      </trkpt>
      <trkpt lat="44.79823" lon="6.29182">
        <ele>2270</ele>
        <time>2016-09-02T12:03:33+02:00</time>
      </trkpt>
      <trkpt lat="44.79842" lon="6.292">
        <ele>2269</ele>
        <time>2016-09-02T12:03:53+02:00</time>
      </trkpt>
      <trkpt lat="44.79862" lon="6.29186">
        <ele>2266</ele>
        <time>2016-09-02T12:07:21+02:00</time>
      </trkpt>
      <trkpt lat="44.79884" lon="6.29199">
        <ele>2262</ele>
        <time>2016-09-02T12:08:08+02:00</time>
      </trkpt>
      <trkpt lat="44.79906" lon="6.29192">
        <ele>2259</ele>
        <time>2016-09-02T12:08:34+02:00</time>
      </trkpt>
      <trkpt lat="44.79926" lon="6.29175">
        <ele>2257</ele>
        <time>2016-09-02T12:09:06+02:00</time>
      </trkpt>
      <trkpt lat="44.79949" lon="6.29169">
        <ele>2252</ele>
        <time>2016-09-02T12:09:32+02:00</time>
      </trkpt>
      <trkpt lat="44.79971" lon="6.29162">
        <ele>2248</ele>
        <time>2016-09-02T12:10:06+02:00</time>
      </trkpt>
      <trkpt lat="44.79994" lon="6.29156">
        <ele>2244</ele>
        <time>2016-09-02T12:10:36+02:00</time>
      </trkpt>
      <trkpt lat="44.80017" lon="6.2916">
        <ele>2237</ele>
        <time>2016-09-02T12:11:10+02:00</time>
      </trkpt>
      <trkpt lat="44.80039" lon="6.29172">
        <ele>2229</ele>
        <time>2016-09-02T12:11:33+02:00</time>
      </trkpt>
      <trkpt lat="44.80061" lon="6.29183">
        <ele>2222</ele>
        <time>2016-09-02T12:11:51+02:00</time>
      </trkpt>
      <trkpt lat="44.80075" lon="6.29208">
        <ele>2217</ele>
        <time>2016-09-02T12:12:21+02:00</time>
      </trkpt>
      <trkpt lat="44.80095" lon="6.2919">
        <ele>2209</ele>
        <time>2016-09-02T12:13:09+02:00</time>
      </trkpt>
      <trkpt lat="44.80113" lon="6.29171">
        <ele>2201</ele>
        <time>2016-09-02T12:13:50+02:00</time>
      </trkpt>
      <trkpt lat="44.80118" lon="6.29203">
        <ele>2197</ele>
        <time>2016-09-02T12:14:23+02:00</time>
      </trkpt>
      <trkpt lat="44.8014" lon="6.29192">
        <ele>2188</ele>
        <time>2016-09-02T12:15:12+02:00</time>
      </trkpt>
      <trkpt lat="44.80162" lon="6.29188">
        <ele>2177</ele>
        <time>2016-09-02T12:16:18+02:00</time>
      </trkpt>
      <trkpt lat="44.80185" lon="6.29187">
        <ele>2165</ele>
        <time>2016-09-02T12:17:13+02:00</time>
      </trkpt>
      <trkpt lat="44.80179" lon="6.29217">
        <ele>2167</ele>
        <time>2016-09-02T12:17:43+02:00</time>
      </trkpt>
      <trkpt lat="44.80201" lon="6.29209">
        <ele>2155</ele>
        <time>2016-09-02T12:18:40+02:00</time>
      </trkpt>
      <trkpt lat="44.80209" lon="6.29238">
        <ele>2151</ele>
        <time>2016-09-02T12:19:20+02:00</time>
      </trkpt>
      <trkpt lat="44.80229" lon="6.29221">
        <ele>2140</ele>
        <time>2016-09-02T12:20:04+02:00</time>
      </trkpt>
      <trkpt lat="44.80241" lon="6.29194">
        <ele>2133</ele>
        <time>2016-09-02T12:20:30+02:00</time>
      </trkpt>
      <trkpt lat="44.80256" lon="6.29168">
        <ele>2126</ele>
        <time>2016-09-02T12:20:56+02:00</time>
      </trkpt>
      <trkpt lat="44.8026" lon="6.292">
        <ele>2124</ele>
        <time>2016-09-02T12:22:02+02:00</time>
      </trkpt>
      <trkpt lat="44.8027" lon="6.29229">
        <ele>2120</ele>
        <time>2016-09-02T12:22:32+02:00</time>
      </trkpt>
      <trkpt lat="44.80293" lon="6.29223">
        <ele>2111</ele>
        <time>2016-09-02T12:23:02+02:00</time>
      </trkpt>
      <trkpt lat="44.80307" lon="6.29198">
        <ele>2104</ele>
        <time>2016-09-02T12:23:39+02:00</time>
      </trkpt>
      <trkpt lat="44.80312" lon="6.29166">
        <ele>2101</ele>
        <time>2016-09-02T12:24:08+02:00</time>
      </trkpt>
      <trkpt lat="44.80312" lon="6.29133">
        <ele>2099</ele>
        <time>2016-09-02T12:24:35+02:00</time>
      </trkpt>
      <trkpt lat="44.80334" lon="6.29143">
        <ele>2089</ele>
        <time>2016-09-02T12:26:29+02:00</time>
      </trkpt>
      <trkpt lat="44.80357" lon="6.29145">
        <ele>2081</ele>
        <time>2016-09-02T12:26:48+02:00</time>
      </trkpt>
      <trkpt lat="44.80379" lon="6.29154">
        <ele>2075</ele>
        <time>2016-09-02T12:27:12+02:00</time>
      </trkpt>
      <trkpt lat="44.8039" lon="6.29183">
        <ele>2073</ele>
        <time>2016-09-02T12:28:04+02:00</time>
      </trkpt>
      <trkpt lat="44.8038" lon="6.29211">
        <ele>2076</ele>
        <time>2016-09-02T12:28:26+02:00</time>
      </trkpt>
      <trkpt lat="44.80397" lon="6.29231">
        <ele>2070</ele>
        <time>2016-09-02T12:29:04+02:00</time>
      </trkpt>
      <trkpt lat="44.8042" lon="6.29233">
        <ele>2062</ele>
        <time>2016-09-02T12:29:31+02:00</time>
      </trkpt>
      <trkpt lat="44.80443" lon="6.29241">
        <ele>2054</ele>
        <time>2016-09-02T12:30:07+02:00</time>
      </trkpt>
      <trkpt lat="44.80465" lon="6.29245">
        <ele>2046</ele>
        <time>2016-09-02T12:30:29+02:00</time>
      </trkpt>
      <trkpt lat="44.80486" lon="6.29259">
        <ele>2041</ele>
        <time>2016-09-02T12:30:47+02:00</time>
      </trkpt>
      <trkpt lat="44.80498" lon="6.29286">
        <ele>2041</ele>
        <time>2016-09-02T12:31:14+02:00</time>
      </trkpt>
      <trkpt lat="44.80517" lon="6.29305">
        <ele>2034</ele>
        <time>2016-09-02T12:31:38+02:00</time>
      </trkpt>
      <trkpt lat="44.80515" lon="6.29338">
        <ele>2040</ele>
        <time>2016-09-02T12:32:05+02:00</time>
      </trkpt>
      <trkpt lat="44.80514" lon="6.2937">
        <ele>2041</ele>
        <time>2016-09-02T12:32:28+02:00</time>
      </trkpt>
      <trkpt lat="44.80523" lon="6.29399">
        <ele>2035</ele>
        <time>2016-09-02T12:32:59+02:00</time>
      </trkpt>
      <trkpt lat="44.80534" lon="6.29371">
        <ele>2028</ele>
        <time>2016-09-02T12:34:18+02:00</time>
      </trkpt>
      <trkpt lat="44.80546" lon="6.294">
        <ele>2019</ele>
        <time>2016-09-02T12:35:50+02:00</time>
      </trkpt>
      <trkpt lat="44.80557" lon="6.29427">
        <ele>2010</ele>
        <time>2016-09-02T12:36:13+02:00</time>
      </trkpt>
      <trkpt lat="44.80571" lon="6.29453">
        <ele>2002</ele>
        <time>2016-09-02T12:36:36+02:00</time>
      </trkpt>
      <trkpt lat="44.8058" lon="6.29482">
        <ele>1996</ele>
        <time>2016-09-02T12:37:01+02:00</time>
      </trkpt>
      <trkpt lat="44.80588" lon="6.29513">
        <ele>1993</ele>
        <time>2016-09-02T12:37:23+02:00</time>
      </trkpt>
      <trkpt lat="44.80594" lon="6.29481">
        <ele>1986</ele>
        <time>2016-09-02T12:38:06+02:00</time>
      </trkpt>
      <trkpt lat="44.80596" lon="6.29448">
        <ele>1982</ele>
        <time>2016-09-02T12:38:24+02:00</time>
      </trkpt>
      <trkpt lat="44.80599" lon="6.29417">
        <ele>1980</ele>
        <time>2016-09-02T12:38:43+02:00</time>
      </trkpt>
      <trkpt lat="44.80613" lon="6.29441">
        <ele>1971</ele>
        <time>2016-09-02T12:39:42+02:00</time>
      </trkpt>
      <trkpt lat="44.80619" lon="6.29472">
        <ele>1968</ele>
        <time>2016-09-02T12:40:01+02:00</time>
      </trkpt>
      <trkpt lat="44.80632" lon="6.29499">
        <ele>1959</ele>
        <time>2016-09-02T12:40:23+02:00</time>
      </trkpt>
      <trkpt lat="44.80644" lon="6.29527">
        <ele>1951</ele>
        <time>2016-09-02T12:40:59+02:00</time>
      </trkpt>
      <trkpt lat="44.80657" lon="6.29554">
        <ele>1943</ele>
        <time>2016-09-02T12:41:19+02:00</time>
      </trkpt>
      <trkpt lat="44.80661" lon="6.29522">
        <ele>1938</ele>
        <time>2016-09-02T12:41:57+02:00</time>
      </trkpt>
      <trkpt lat="44.80663" lon="6.2949">
        <ele>1936</ele>
        <time>2016-09-02T12:42:21+02:00</time>
      </trkpt>
      <trkpt lat="44.80669" lon="6.29459">
        <ele>1935</ele>
        <time>2016-09-02T12:42:42+02:00</time>
      </trkpt>
      <trkpt lat="44.8068" lon="6.29431">
        <ele>1931</ele>
        <time>2016-09-02T12:43:03+02:00</time>
      </trkpt>
      <trkpt lat="44.80689" lon="6.2946">
        <ele>1925</ele>
        <time>2016-09-02T12:43:36+02:00</time>
      </trkpt>
      <trkpt lat="44.80697" lon="6.2949">
        <ele>1919</ele>
        <time>2016-09-02T12:44:02+02:00</time>
      </trkpt>
      <trkpt lat="44.80711" lon="6.29517">
        <ele>1911</ele>
        <time>2016-09-02T12:44:38+02:00</time>
      </trkpt>
      <trkpt lat="44.80719" lon="6.29548">
        <ele>1906</ele>
        <time>2016-09-02T12:44:55+02:00</time>
      </trkpt>
      <trkpt lat="44.80726" lon="6.29517">
        <ele>1903</ele>
        <time>2016-09-02T12:46:35+02:00</time>
      </trkpt>
      <trkpt lat="44.80731" lon="6.29486">
        <ele>1902</ele>
        <time>2016-09-02T12:47:00+02:00</time>
      </trkpt>
      <trkpt lat="44.80753" lon="6.29495">
        <ele>1890</ele>
        <time>2016-09-02T12:47:53+02:00</time>
      </trkpt>
      <trkpt lat="44.80763" lon="6.29526">
        <ele>1884</ele>
        <time>2016-09-02T12:48:22+02:00</time>
      </trkpt>
      <trkpt lat="44.80769" lon="6.29558">
        <ele>1879</ele>
        <time>2016-09-02T12:48:37+02:00</time>
      </trkpt>
      <trkpt lat="44.8078" lon="6.29528">
        <ele>1876</ele>
        <time>2016-09-02T12:49:16+02:00</time>
      </trkpt>
      <trkpt lat="44.80797" lon="6.2955">
        <ele>1865</ele>
        <time>2016-09-02T12:49:56+02:00</time>
      </trkpt>
      <trkpt lat="44.80808" lon="6.29523">
        <ele>1862</ele>
        <time>2016-09-02T12:50:39+02:00</time>
      </trkpt>
      <trkpt lat="44.80823" lon="6.29498">
        <ele>1858</ele>
        <time>2016-09-02T12:51:08+02:00</time>
      </trkpt>
      <trkpt lat="44.8084" lon="6.29473">
        <ele>1854</ele>
        <time>2016-09-02T12:51:51+02:00</time>
      </trkpt>
      <trkpt lat="44.80854" lon="6.29499">
        <ele>1845</ele>
        <time>2016-09-02T12:52:32+02:00</time>
      </trkpt>
      <trkpt lat="44.80858" lon="6.29532">
        <ele>1839</ele>
        <time>2016-09-02T12:52:48+02:00</time>
      </trkpt>
      <trkpt lat="44.80863" lon="6.29565">
        <ele>1833</ele>
        <time>2016-09-02T12:53:15+02:00</time>
      </trkpt>
      <trkpt lat="44.80885" lon="6.29551">
        <ele>1825</ele>
        <time>2016-09-02T12:53:50+02:00</time>
      </trkpt>
      <trkpt lat="44.80904" lon="6.29533">
        <ele>1820</ele>
        <time>2016-09-02T12:54:15+02:00</time>
      </trkpt>
      <trkpt lat="44.80927" lon="6.29536">
        <ele>1809</ele>
        <time>2016-09-02T12:55:17+02:00</time>
      </trkpt>
      <trkpt lat="44.80937" lon="6.29566">
        <ele>1800</ele>
        <time>2016-09-02T12:56:09+02:00</time>
      </trkpt>
      <trkpt lat="44.8096" lon="6.29562">
        <ele>1789</ele>
        <time>2016-09-02T12:56:47+02:00</time>
      </trkpt>
      <trkpt lat="44.80982" lon="6.29554">
        <ele>1779</ele>
        <time>2016-09-02T12:58:27+02:00</time>
      </trkpt>
      <trkpt lat="44.80997" lon="6.29528">
        <ele>1775</ele>
        <time>2016-09-02T12:59:23+02:00</time>
      </trkpt>
      <trkpt lat="44.8102" lon="6.29528">
        <ele>1765</ele>
        <time>2016-09-02T13:00:29+02:00</time>
      </trkpt>
      <trkpt lat="44.81042" lon="6.29527">
        <ele>1755</ele>
        <time>2016-09-02T13:03:13+02:00</time>
      </trkpt>
      <trkpt lat="44.81061" lon="6.29509">
        <ele>1749</ele>
        <time>2016-09-02T13:03:36+02:00</time>
      </trkpt>
      <trkpt lat="44.81084" lon="6.29523">
        <ele>1736</ele>
        <time>2016-09-02T13:04:57+02:00</time>
      </trkpt>
      <trkpt lat="44.81083" lon="6.29556">
        <ele>1731</ele>
        <time>2016-09-02T13:09:20+02:00</time>
      </trkpt>
      <trkpt lat="44.81096" lon="6.29583">
        <ele>1725</ele>
        <time>2016-09-02T13:09:40+02:00</time>
      </trkpt>
      <trkpt lat="44.81111" lon="6.29607">
        <ele>1718</ele>
        <time>2016-09-02T13:10:01+02:00</time>
      </trkpt>
      <trkpt lat="44.81116" lon="6.29638">
        <ele>1710</ele>
        <time>2016-09-02T13:10:34+02:00</time>
      </trkpt>
      <trkpt lat="44.81138" lon="6.29629">
        <ele>1707</ele>
        <time>2016-09-02T13:11:16+02:00</time>
      </trkpt>
      <trkpt lat="44.81151" lon="6.29603">
        <ele>1710</ele>
        <time>2016-09-02T13:11:34+02:00</time>
      </trkpt>
      <trkpt lat="44.81174" lon="6.29602">
        <ele>1707</ele>
        <time>2016-09-02T13:12:02+02:00</time>
      </trkpt>
      <trkpt lat="44.81195" lon="6.29613">
        <ele>1704</ele>
        <time>2016-09-02T13:12:24+02:00</time>
      </trkpt>
      <trkpt lat="44.81217" lon="6.29625">
        <ele>1700</ele>
        <time>2016-09-02T13:12:50+02:00</time>
      </trkpt>
      <trkpt lat="44.81236" lon="6.29644">
        <ele>1695</ele>
        <time>2016-09-02T13:13:14+02:00</time>
      </trkpt>
      <trkpt lat="44.81259" lon="6.29646">
        <ele>1693</ele>
        <time>2016-09-02T13:14:17+02:00</time>
      </trkpt>
      <trkpt lat="44.81282" lon="6.2964">
        <ele>1691</ele>
        <time>2016-09-02T13:14:37+02:00</time>
      </trkpt>
      <trkpt lat="44.81304" lon="6.29635">
        <ele>1689</ele>
        <time>2016-09-02T13:14:55+02:00</time>
      </trkpt>
      <trkpt lat="44.81327" lon="6.29627">
        <ele>1687</ele>
        <time>2016-09-02T13:15:14+02:00</time>
      </trkpt>
      <trkpt lat="44.8135" lon="6.2962">
        <ele>1685</ele>
        <time>2016-09-02T13:15:32+02:00</time>
      </trkpt>
      <trkpt lat="44.81373" lon="6.29616">
        <ele>1683</ele>
        <time>2016-09-02T13:15:51+02:00</time>
      </trkpt>
      <trkpt lat="44.81396" lon="6.29608">
        <ele>1680</ele>
        <time>2016-09-02T13:16:09+02:00</time>
      </trkpt>
      <trkpt lat="44.81418" lon="6.29601">
        <ele>1678</ele>
        <time>2016-09-02T13:16:27+02:00</time>
      </trkpt>
      <trkpt lat="44.81441" lon="6.29594">
        <ele>1675</ele>
        <time>2016-09-02T13:16:45+02:00</time>
      </trkpt>
      <trkpt lat="44.81462" lon="6.29584">
        <ele>1672</ele>
        <time>2016-09-02T13:17:37+02:00</time>
      </trkpt>
      <trkpt lat="44.81485" lon="6.29576">
        <ele>1669</ele>
        <time>2016-09-02T13:18:03+02:00</time>
      </trkpt>
      <trkpt lat="44.81508" lon="6.2957">
        <ele>1666</ele>
        <time>2016-09-02T13:18:22+02:00</time>
      </trkpt>
      <trkpt lat="44.8153" lon="6.2956">
        <ele>1664</ele>
        <time>2016-09-02T13:18:42+02:00</time>
      </trkpt>
      <trkpt lat="44.81553" lon="6.2956">
        <ele>1660</ele>
        <time>2016-09-02T13:19:01+02:00</time>
      </trkpt>
      <trkpt lat="44.81576" lon="6.29559">
        <ele>1657</ele>
        <time>2016-09-02T13:19:21+02:00</time>
      </trkpt>
      <trkpt lat="44.81598" lon="6.2956">
        <ele>1654</ele>
        <time>2016-09-02T13:19:41+02:00</time>
      </trkpt>
      <trkpt lat="44.81621" lon="6.29559">
        <ele>1652</ele>
        <time>2016-09-02T13:20:15+02:00</time>
      </trkpt>
      <trkpt lat="44.81644" lon="6.29555">
        <ele>1650</ele>
        <time>2016-09-02T13:20:42+02:00</time>
      </trkpt>
      <trkpt lat="44.81668" lon="6.29556">
        <ele>1648</ele>
        <time>2016-09-02T13:21:01+02:00</time>
      </trkpt>
      <trkpt lat="44.81691" lon="6.29558">
        <ele>1645</ele>
        <time>2016-09-02T13:21:21+02:00</time>
      </trkpt>
      <trkpt lat="44.81713" lon="6.29566">
        <ele>1640</ele>
        <time>2016-09-02T13:21:43+02:00</time>
      </trkpt>
      <trkpt lat="44.81741" lon="6.29565">
        <ele>1637</ele>
        <time>2016-09-02T13:22:16+02:00</time>
      </trkpt>
      <trkpt lat="44.81765" lon="6.29564">
        <ele>1635</ele>
        <time>2016-09-02T13:22:50+02:00</time>
      </trkpt>
      <trkpt lat="44.81786" lon="6.29553">
        <ele>1636</ele>
        <time>2016-09-02T13:23:14+02:00</time>
      </trkpt>
      <trkpt lat="44.8181" lon="6.29553">
        <ele>1634</ele>
        <time>2016-09-02T13:23:37+02:00</time>
      </trkpt>
      <trkpt lat="44.81832" lon="6.29553">
        <ele>1632</ele>
        <time>2016-09-02T13:23:53+02:00</time>
      </trkpt>
      <trkpt lat="44.81855" lon="6.29557">
        <ele>1629</ele>
        <time>2016-09-02T13:24:13+02:00</time>
      </trkpt>
      <trkpt lat="44.81878" lon="6.29561">
        <ele>1625</ele>
        <time>2016-09-02T13:24:39+02:00</time>
      </trkpt>
      <trkpt lat="44.81901" lon="6.29557">
        <ele>1624</ele>
        <time>2016-09-02T13:24:52+02:00</time>
      </trkpt>
      <trkpt lat="44.81924" lon="6.29563">
        <ele>1619</ele>
        <time>2016-09-02T13:25:08+02:00</time>
      </trkpt>
      <trkpt lat="44.81945" lon="6.2955">
        <ele>1619</ele>
        <time>2016-09-02T13:25:37+02:00</time>
      </trkpt>
      <trkpt lat="44.81968" lon="6.29544">
        <ele>1617</ele>
        <time>2016-09-02T13:25:58+02:00</time>
      </trkpt>
      <trkpt lat="44.81989" lon="6.29533">
        <ele>1616</ele>
        <time>2016-09-02T13:26:24+02:00</time>
      </trkpt>
      <trkpt lat="44.82012" lon="6.29532">
        <ele>1612</ele>
        <time>2016-09-02T13:26:52+02:00</time>
      </trkpt>
      <trkpt lat="44.82034" lon="6.2952">
        <ele>1611</ele>
        <time>2016-09-02T13:27:14+02:00</time>
      </trkpt>
      <trkpt lat="44.82057" lon="6.29521">
        <ele>1607</ele>
        <time>2016-09-02T13:27:31+02:00</time>
      </trkpt>
      <trkpt lat="44.82077" lon="6.29505">
        <ele>1606</ele>
        <time>2016-09-02T13:27:53+02:00</time>
      </trkpt>
      <trkpt lat="44.82101" lon="6.29501">
        <ele>1601</ele>
        <time>2016-09-02T13:28:18+02:00</time>
      </trkpt>
      <trkpt lat="44.82123" lon="6.29491">
        <ele>1596</ele>
        <time>2016-09-02T13:28:42+02:00</time>
      </trkpt>
      <trkpt lat="44.82143" lon="6.29474">
        <ele>1594</ele>
        <time>2016-09-02T13:28:59+02:00</time>
      </trkpt>
      <trkpt lat="44.82162" lon="6.29457">
        <ele>1591</ele>
        <time>2016-09-02T13:29:22+02:00</time>
      </trkpt>
      <trkpt lat="44.82178" lon="6.29434">
        <ele>1591</ele>
        <time>2016-09-02T13:29:42+02:00</time>
      </trkpt>
      <trkpt lat="44.82196" lon="6.29414">
        <ele>1590</ele>
        <time>2016-09-02T13:30:01+02:00</time>
      </trkpt>
      <trkpt lat="44.82215" lon="6.29396">
        <ele>1594</ele>
        <time>2016-09-02T13:30:21+02:00</time>
      </trkpt>
      <trkpt lat="44.82239" lon="6.29393">
        <ele>1589</ele>
        <time>2016-09-02T13:31:28+02:00</time>
      </trkpt>
      <trkpt lat="44.8226" lon="6.29381">
        <ele>1590</ele>
        <time>2016-09-02T13:31:49+02:00</time>
      </trkpt>
      <trkpt lat="44.82281" lon="6.29367">
        <ele>1591</ele>
        <time>2016-09-02T13:32:10+02:00</time>
      </trkpt>
      <trkpt lat="44.82302" lon="6.29353">
        <ele>1591</ele>
        <time>2016-09-02T13:32:40+02:00</time>
      </trkpt>
      <trkpt lat="44.82324" lon="6.29342">
        <ele>1587</ele>
        <time>2016-09-02T13:32:56+02:00</time>
      </trkpt>
      <trkpt lat="44.82348" lon="6.29343">
        <ele>1582</ele>
        <time>2016-09-02T13:33:22+02:00</time>
      </trkpt>
      <trkpt lat="44.8237" lon="6.2934">
        <ele>1580</ele>
        <time>2016-09-02T13:33:43+02:00</time>
      </trkpt>
      <trkpt lat="44.82393" lon="6.29343">
        <ele>1577</ele>
        <time>2016-09-02T13:34:09+02:00</time>
      </trkpt>
      <trkpt lat="44.82416" lon="6.29332">
        <ele>1576</ele>
        <time>2016-09-02T13:34:38+02:00</time>
      </trkpt>
      <trkpt lat="44.82439" lon="6.29331">
        <ele>1573</ele>
        <time>2016-09-02T13:34:49+02:00</time>
      </trkpt>
      <trkpt lat="44.82461" lon="6.2934">
        <ele>1570</ele>
        <time>2016-09-02T13:36:59+02:00</time>
      </trkpt>
      <trkpt lat="44.82482" lon="6.29325">
        <ele>1569</ele>
        <time>2016-09-02T13:37:53+02:00</time>
      </trkpt>
      <trkpt lat="44.82504" lon="6.29314">
        <ele>1568</ele>
        <time>2016-09-02T13:38:14+02:00</time>
      </trkpt>
      <trkpt lat="44.82527" lon="6.29317">
        <ele>1566</ele>
        <time>2016-09-02T13:38:51+02:00</time>
      </trkpt>
      <trkpt lat="44.82547" lon="6.29304">
        <ele>1565</ele>
        <time>2016-09-02T13:39:10+02:00</time>
      </trkpt>
      <trkpt lat="44.8257" lon="6.29306">
        <ele>1563</ele>
        <time>2016-09-02T13:39:35+02:00</time>
      </trkpt>
      <trkpt lat="44.8259" lon="6.29288">
        <ele>1561</ele>
        <time>2016-09-02T13:39:58+02:00</time>
      </trkpt>
      <trkpt lat="44.8261" lon="6.29274">
        <ele>1560</ele>
        <time>2016-09-02T13:40:23+02:00</time>
      </trkpt>
      <trkpt lat="44.82632" lon="6.29265">
        <ele>1559</ele>
        <time>2016-09-02T13:40:41+02:00</time>
      </trkpt>
      <trkpt lat="44.8265" lon="6.29244">
        <ele>1556</ele>
        <time>2016-09-02T13:41:05+02:00</time>
      </trkpt>
      <trkpt lat="44.82671" lon="6.29232">
        <ele>1554</ele>
        <time>2016-09-02T13:41:26+02:00</time>
      </trkpt>
      <trkpt lat="44.82693" lon="6.29217">
        <ele>1552</ele>
        <time>2016-09-02T13:41:41+02:00</time>
      </trkpt>
      <trkpt lat="44.82715" lon="6.29227">
        <ele>1550</ele>
        <time>2016-09-02T13:42:08+02:00</time>
      </trkpt>
      <trkpt lat="44.82734" lon="6.29209">
        <ele>1547</ele>
        <time>2016-09-02T13:42:29+02:00</time>
      </trkpt>
      <trkpt lat="44.82757" lon="6.29204">
        <ele>1544</ele>
        <time>2016-09-02T13:43:02+02:00</time>
      </trkpt>
      <trkpt lat="44.82779" lon="6.29194">
        <ele>1542</ele>
        <time>2016-09-02T13:43:38+02:00</time>
      </trkpt>
      <trkpt lat="44.82801" lon="6.29198">
        <ele>1543</ele>
        <time>2016-09-02T13:44:24+02:00</time>
      </trkpt>
      <trkpt lat="44.82815" lon="6.29171">
        <ele>1535</ele>
        <time>2016-09-02T13:44:47+02:00</time>
      </trkpt>
      <trkpt lat="44.82834" lon="6.29154">
        <ele>1532</ele>
        <time>2016-09-02T13:45:19+02:00</time>
      </trkpt>
      <trkpt lat="44.82854" lon="6.29135">
        <ele>1531</ele>
        <time>2016-09-02T13:45:40+02:00</time>
      </trkpt>
      <trkpt lat="44.82871" lon="6.29113">
        <ele>1526</ele>
        <time>2016-09-02T13:45:57+02:00</time>
      </trkpt>
      <trkpt lat="44.82894" lon="6.29104">
        <ele>1522</ele>
        <time>2016-09-02T13:46:28+02:00</time>
      </trkpt>
      <trkpt lat="44.82915" lon="6.29091">
        <ele>1516</ele>
        <time>2016-09-02T13:46:50+02:00</time>
      </trkpt>
      <trkpt lat="44.82938" lon="6.29084">
        <ele>1521</ele>
        <time>2016-09-02T13:47:04+02:00</time>
      </trkpt>
      <trkpt lat="44.82959" lon="6.29073">
        <ele>1525</ele>
        <time>2016-09-02T13:47:22+02:00</time>
      </trkpt>
      <trkpt lat="44.8298" lon="6.29059">
        <ele>1527</ele>
        <time>2016-09-02T13:48:04+02:00</time>
      </trkpt>
      <trkpt lat="44.82997" lon="6.29037">
        <ele>1522</ele>
        <time>2016-09-02T13:48:22+02:00</time>
      </trkpt>
      <trkpt lat="44.8301" lon="6.29009">
        <ele>1516</ele>
        <time>2016-09-02T13:48:39+02:00</time>
      </trkpt>
      <trkpt lat="44.83021" lon="6.2898">
        <ele>1513</ele>
        <time>2016-09-02T13:49:00+02:00</time>
      </trkpt>
      <trkpt lat="44.83024" lon="6.28949">
        <ele>1507</ele>
        <time>2016-09-02T13:49:17+02:00</time>
      </trkpt>
      <trkpt lat="44.83037" lon="6.28923">
        <ele>1505</ele>
        <time>2016-09-02T13:49:37+02:00</time>
      </trkpt>
      <trkpt lat="44.83051" lon="6.28897">
        <ele>1503</ele>
        <time>2016-09-02T13:50:06+02:00</time>
      </trkpt>
      <trkpt lat="44.83053" lon="6.28865">
        <ele>1498</ele>
        <time>2016-09-02T13:50:20+02:00</time>
      </trkpt>
      <trkpt lat="44.83067" lon="6.28839">
        <ele>1492</ele>
        <time>2016-09-02T13:50:43+02:00</time>
      </trkpt>
      <trkpt lat="44.83077" lon="6.2881">
        <ele>1485</ele>
        <time>2016-09-02T13:51:07+02:00</time>
      </trkpt>
      <trkpt lat="44.83087" lon="6.28781">
        <ele>1480</ele>
        <time>2016-09-02T13:51:26+02:00</time>
      </trkpt>
      <trkpt lat="44.83089" lon="6.28749">
        <ele>1475</ele>
        <time>2016-09-02T13:51:58+02:00</time>
      </trkpt>
      <trkpt lat="44.83105" lon="6.28726">
        <ele>1483</ele>
        <time>2016-09-02T13:52:21+02:00</time>
      </trkpt>
      <trkpt lat="44.83106" lon="6.28694">
        <ele>1478</ele>
        <time>2016-09-02T13:52:41+02:00</time>
      </trkpt>
      <trkpt lat="44.83106" lon="6.28662">
        <ele>1472</ele>
        <time>2016-09-02T13:53:09+02:00</time>
      </trkpt>
      <trkpt lat="44.83097" lon="6.28631">
        <ele>1464</ele>
        <time>2016-09-02T13:53:24+02:00</time>
      </trkpt>
      <trkpt lat="44.83097" lon="6.28599">
        <ele>1460</ele>
        <time>2016-09-02T13:53:43+02:00</time>
      </trkpt>
      <trkpt lat="44.83102" lon="6.28568">
        <ele>1457</ele>
        <time>2016-09-02T13:57:20+02:00</time>
      </trkpt>
      <trkpt lat="44.83106" lon="6.28536">
        <ele>1453</ele>
        <time>2016-09-02T13:57:38+02:00</time>
      </trkpt>
      <trkpt lat="44.83116" lon="6.28507">
        <ele>1450</ele>
        <time>2016-09-02T13:57:56+02:00</time>
      </trkpt>
      <trkpt lat="44.83136" lon="6.2849">
        <ele>1449</ele>
        <time>2016-09-02T13:58:20+02:00</time>
      </trkpt>
      <trkpt lat="44.83149" lon="6.28464">
        <ele>1446</ele>
        <time>2016-09-02T13:58:47+02:00</time>
      </trkpt>
      <trkpt lat="44.83153" lon="6.28433">
        <ele>1440</ele>
        <time>2016-09-02T14:00:14+02:00</time>
      </trkpt>
      <trkpt lat="44.83157" lon="6.28401">
        <ele>1436</ele>
        <time>2016-09-02T14:00:31+02:00</time>
      </trkpt>
      <trkpt lat="44.83162" lon="6.28368">
        <ele>1433</ele>
        <time>2016-09-02T14:00:57+02:00</time>
      </trkpt>
      <trkpt lat="44.83184" lon="6.2836">
        <ele>1440</ele>
        <time>2016-09-02T14:01:20+02:00</time>
      </trkpt>
      <trkpt lat="44.83207" lon="6.28357">
        <ele>1451</ele>
        <time>2016-09-02T14:01:52+02:00</time>
      </trkpt>
      <trkpt lat="44.83218" lon="6.28329">
        <ele>1460</ele>
        <time>2016-09-02T14:02:22+02:00</time>
      </trkpt>
      <trkpt lat="44.83215" lon="6.28297">
        <ele>1457</ele>
        <time>2016-09-02T14:02:48+02:00</time>
      </trkpt>
      <trkpt lat="44.83214" lon="6.28264">
        <ele>1455</ele>
        <time>2016-09-02T14:03:13+02:00</time>
      </trkpt>
      <trkpt lat="44.83207" lon="6.28232">
        <ele>1451</ele>
        <time>2016-09-02T14:03:35+02:00</time>
      </trkpt>
      <trkpt lat="44.832" lon="6.28201">
        <ele>1449</ele>
        <time>2016-09-02T14:04:05+02:00</time>
      </trkpt>
      <trkpt lat="44.83194" lon="6.2817">
        <ele>1446</ele>
        <time>2016-09-02T14:04:26+02:00</time>
      </trkpt>
      <trkpt lat="44.83187" lon="6.28139">
        <ele>1446</ele>
        <time>2016-09-02T14:04:38+02:00</time>
      </trkpt>
      <trkpt lat="44.83173" lon="6.28114">
        <ele>1441</ele>
        <time>2016-09-02T14:04:56+02:00</time>
      </trkpt>
      <trkpt lat="44.83155" lon="6.28092">
        <ele>1437</ele>
        <time>2016-09-02T14:05:16+02:00</time>
      </trkpt>
      <trkpt lat="44.83139" lon="6.2807">
        <ele>1437</ele>
        <time>2016-09-02T14:05:35+02:00</time>
      </trkpt>
      <trkpt lat="44.83124" lon="6.28044">
        <ele>1438</ele>
        <time>2016-09-02T14:05:55+02:00</time>
      </trkpt>
      <trkpt lat="44.83105" lon="6.28026">
        <ele>1435</ele>
        <time>2016-09-02T14:06:15+02:00</time>
      </trkpt>
      <trkpt lat="44.83087" lon="6.28006">
        <ele>1430</ele>
        <time>2016-09-02T14:06:38+02:00</time>
      </trkpt>
      <trkpt lat="44.8307" lon="6.27985">
        <ele>1431</ele>
        <time>2016-09-02T14:07:01+02:00</time>
      </trkpt>
      <trkpt lat="44.8305" lon="6.2797">
        <ele>1431</ele>
        <time>2016-09-02T14:07:20+02:00</time>
      </trkpt>
      <trkpt lat="44.83027" lon="6.27964">
        <ele>1425</ele>
        <time>2016-09-02T14:07:43+02:00</time>
      </trkpt>
      <trkpt lat="44.83006" lon="6.2795">
        <ele>1420</ele>
        <time>2016-09-02T14:08:03+02:00</time>
      </trkpt>
      <trkpt lat="44.82991" lon="6.27926">
        <ele>1420</ele>
        <time>2016-09-02T14:08:20+02:00</time>
      </trkpt>
      <trkpt lat="44.82989" lon="6.27893">
        <ele>1424</ele>
        <time>2016-09-02T14:08:43+02:00</time>
      </trkpt>
      <trkpt lat="44.82974" lon="6.27869">
        <ele>1423</ele>
        <time>2016-09-02T14:09:07+02:00</time>
      </trkpt>
      <trkpt lat="44.82966" lon="6.27838">
        <ele>1424</ele>
        <time>2016-09-02T14:09:28+02:00</time>
      </trkpt>
      <trkpt lat="44.82957" lon="6.27808">
        <ele>1423</ele>
        <time>2016-09-02T14:09:46+02:00</time>
      </trkpt>
      <trkpt lat="44.82949" lon="6.27778">
        <ele>1421</ele>
        <time>2016-09-02T14:10:33+02:00</time>
      </trkpt>
      <trkpt lat="44.82943" lon="6.27746">
        <ele>1420</ele>
        <time>2016-09-02T14:10:52+02:00</time>
      </trkpt>
      <trkpt lat="44.82945" lon="6.27713">
        <ele>1419</ele>
        <time>2016-09-02T14:11:12+02:00</time>
      </trkpt>
      <trkpt lat="44.82941" lon="6.27682">
        <ele>1416</ele>
        <time>2016-09-02T14:11:31+02:00</time>
      </trkpt>
      <trkpt lat="44.82939" lon="6.2765">
        <ele>1413</ele>
        <time>2016-09-02T14:11:45+02:00</time>
      </trkpt>
      <trkpt lat="44.82924" lon="6.27626">
        <ele>1405</ele>
        <time>2016-09-02T14:12:10+02:00</time>
      </trkpt>
      <trkpt lat="44.82926" lon="6.27593">
        <ele>1405</ele>
        <time>2016-09-02T14:12:33+02:00</time>
      </trkpt>
      <trkpt lat="44.8293" lon="6.27562">
        <ele>1408</ele>
        <time>2016-09-02T14:13:08+02:00</time>
      </trkpt>
      <trkpt lat="44.82918" lon="6.27531">
        <ele>1403</ele>
        <time>2016-09-02T14:13:40+02:00</time>
      </trkpt>
      <trkpt lat="44.8292" lon="6.27499">
        <ele>1406</ele>
        <time>2016-09-02T15:30:50+02:00</time>
      </trkpt>
      <trkpt lat="44.82909" lon="6.27467">
        <ele>1405</ele>
        <time>2016-09-02T15:31:25+02:00</time>
      </trkpt>
      <trkpt lat="44.82914" lon="6.27435">
        <ele>1407</ele>
        <time>2016-09-02T15:31:54+02:00</time>
      </trkpt>
      <trkpt lat="44.82911" lon="6.27403">
        <ele>1409</ele>
        <time>2016-09-02T15:32:25+02:00</time>
      </trkpt>
      <trkpt lat="44.82911" lon="6.27371">
        <ele>1410</ele>
        <time>2016-09-02T15:32:53+02:00</time>
      </trkpt>
      <trkpt lat="44.82912" lon="6.27339">
        <ele>1412</ele>
        <time>2016-09-02T15:33:16+02:00</time>
      </trkpt>
      <trkpt lat="44.82906" lon="6.27308">
        <ele>1414</ele>
        <time>2016-09-02T15:33:37+02:00</time>
      </trkpt>
      <trkpt lat="44.82908" lon="6.27276">
        <ele>1418</ele>
        <time>2016-09-02T15:34:05+02:00</time>
      </trkpt>
      <trkpt lat="44.82903" lon="6.27245">
        <ele>1420</ele>
        <time>2016-09-02T15:34:36+02:00</time>
      </trkpt>
      <trkpt lat="44.82903" lon="6.27213">
        <ele>1424</ele>
        <time>2016-09-02T15:35:14+02:00</time>
      </trkpt>
      <trkpt lat="44.82905" lon="6.27182">
        <ele>1429</ele>
        <time>2016-09-02T15:35:52+02:00</time>
      </trkpt>
      <trkpt lat="44.82904" lon="6.2715">
        <ele>1433</ele>
        <time>2016-09-02T15:36:31+02:00</time>
      </trkpt>
      <trkpt lat="44.82904" lon="6.27118">
        <ele>1438</ele>
        <time>2016-09-02T15:37:21+02:00</time>
      </trkpt>
      <trkpt lat="44.82911" lon="6.27086">
        <ele>1446</ele>
        <time>2016-09-02T15:37:43+02:00</time>
      </trkpt>
      <trkpt lat="44.82895" lon="6.27062">
        <ele>1440</ele>
        <time>2016-09-02T15:38:35+02:00</time>
      </trkpt>
      <trkpt lat="44.82888" lon="6.2703">
        <ele>1440</ele>
        <time>2016-09-02T15:39:04+02:00</time>
      </trkpt>
      <trkpt lat="44.82878" lon="6.27001">
        <ele>1437</ele>
        <time>2016-09-02T15:39:31+02:00</time>
      </trkpt>
      <trkpt lat="44.82872" lon="6.2697">
        <ele>1438</ele>
        <time>2016-09-02T15:40:00+02:00</time>
      </trkpt>
      <trkpt lat="44.8286" lon="6.26944">
        <ele>1435</ele>
        <time>2016-09-02T15:40:22+02:00</time>
      </trkpt>
      <trkpt lat="44.82851" lon="6.26913">
        <ele>1435</ele>
        <time>2016-09-02T15:40:44+02:00</time>
      </trkpt>
      <trkpt lat="44.82854" lon="6.26881">
        <ele>1441</ele>
        <time>2016-09-02T15:41:07+02:00</time>
      </trkpt>
      <trkpt lat="44.82836" lon="6.26862">
        <ele>1434</ele>
        <time>2016-09-02T15:41:24+02:00</time>
      </trkpt>
      <trkpt lat="44.82824" lon="6.26834">
        <ele>1432</ele>
        <time>2016-09-02T15:41:45+02:00</time>
      </trkpt>
      <trkpt lat="44.8282" lon="6.26802">
        <ele>1434</ele>
        <time>2016-09-02T15:42:12+02:00</time>
      </trkpt>
      <trkpt lat="44.82812" lon="6.26771">
        <ele>1433</ele>
        <time>2016-09-02T15:42:57+02:00</time>
      </trkpt>
      <trkpt lat="44.82801" lon="6.26743">
        <ele>1430</ele>
        <time>2016-09-02T15:43:26+02:00</time>
      </trkpt>
      <trkpt lat="44.82791" lon="6.26714">
        <ele>1425</ele>
        <time>2016-09-02T15:43:48+02:00</time>
      </trkpt>
      <trkpt lat="44.82783" lon="6.26682">
        <ele>1421</ele>
        <time>2016-09-02T15:44:23+02:00</time>
      </trkpt>
      <trkpt lat="44.82771" lon="6.26654">
        <ele>1416</ele>
        <time>2016-09-02T15:44:46+02:00</time>
      </trkpt>
      <trkpt lat="44.82767" lon="6.26622">
        <ele>1414</ele>
        <time>2016-09-02T15:45:11+02:00</time>
      </trkpt>
      <trkpt lat="44.82755" lon="6.26594">
        <ele>1409</ele>
        <time>2016-09-02T15:45:54+02:00</time>
      </trkpt>
      <trkpt lat="44.82747" lon="6.26564">
        <ele>1407</ele>
        <time>2016-09-02T15:46:14+02:00</time>
      </trkpt>
      <trkpt lat="44.82748" lon="6.26532">
        <ele>1410</ele>
        <time>2016-09-02T15:46:48+02:00</time>
      </trkpt>
      <trkpt lat="44.82739" lon="6.26501">
        <ele>1408</ele>
        <time>2016-09-02T15:47:08+02:00</time>
      </trkpt>
      <trkpt lat="44.82737" lon="6.26469">
        <ele>1410</ele>
        <time>2016-09-02T15:47:23+02:00</time>
      </trkpt>
      <trkpt lat="44.82737" lon="6.26436">
        <ele>1414</ele>
        <time>2016-09-02T15:47:51+02:00</time>
      </trkpt>
      <trkpt lat="44.82731" lon="6.26406">
        <ele>1415</ele>
        <time>2016-09-02T15:48:32+02:00</time>
      </trkpt>
      <trkpt lat="44.82715" lon="6.26382">
        <ele>1412</ele>
        <time>2016-09-02T15:48:49+02:00</time>
      </trkpt>
      <trkpt lat="44.82704" lon="6.26353">
        <ele>1412</ele>
        <time>2016-09-02T15:49:12+02:00</time>
      </trkpt>
      <trkpt lat="44.82701" lon="6.26321">
        <ele>1416</ele>
        <time>2016-09-02T15:49:36+02:00</time>
      </trkpt>
      <trkpt lat="44.82691" lon="6.26292">
        <ele>1416</ele>
        <time>2016-09-02T15:49:58+02:00</time>
      </trkpt>
      <trkpt lat="44.82692" lon="6.2626">
        <ele>1420</ele>
        <time>2016-09-02T15:50:27+02:00</time>
      </trkpt>
      <trkpt lat="44.82693" lon="6.26227">
        <ele>1424</ele>
        <time>2016-09-02T15:50:44+02:00</time>
      </trkpt>
      <trkpt lat="44.82685" lon="6.26197">
        <ele>1422</ele>
        <time>2016-09-02T15:51:14+02:00</time>
      </trkpt>
      <trkpt lat="44.82671" lon="6.26171">
        <ele>1418</ele>
        <time>2016-09-02T15:51:40+02:00</time>
      </trkpt>
      <trkpt lat="44.82659" lon="6.26142">
        <ele>1410</ele>
        <time>2016-09-02T15:52:01+02:00</time>
      </trkpt>
      <trkpt lat="44.82658" lon="6.26111">
        <ele>1405</ele>
        <time>2016-09-02T15:52:21+02:00</time>
      </trkpt>
      <trkpt lat="44.8266" lon="6.26079">
        <ele>1401</ele>
        <time>2016-09-02T15:53:13+02:00</time>
      </trkpt>
      <trkpt lat="44.82654" lon="6.26048">
        <ele>1393</ele>
        <time>2016-09-02T15:53:39+02:00</time>
      </trkpt>
      <trkpt lat="44.8267" lon="6.26021">
        <ele>1395</ele>
        <time>2016-09-02T15:54:10+02:00</time>
      </trkpt>
      <trkpt lat="44.8268" lon="6.25992">
        <ele>1398</ele>
        <time>2016-09-02T15:54:58+02:00</time>
      </trkpt>
      <trkpt lat="44.82659" lon="6.25976">
        <ele>1390</ele>
        <time>2016-09-02T15:55:34+02:00</time>
      </trkpt>
      <trkpt lat="44.8264" lon="6.25957">
        <ele>1383</ele>
        <time>2016-09-02T15:56:04+02:00</time>
      </trkpt>
      <trkpt lat="44.82628" lon="6.25928">
        <ele>1381</ele>
        <time>2016-09-02T15:56:35+02:00</time>
      </trkpt>
      <trkpt lat="44.82613" lon="6.25904">
        <ele>1376</ele>
        <time>2016-09-02T15:56:51+02:00</time>
      </trkpt>
      <trkpt lat="44.82594" lon="6.25887">
        <ele>1368</ele>
        <time>2016-09-02T15:57:23+02:00</time>
      </trkpt>
      <trkpt lat="44.82572" lon="6.25877">
        <ele>1358</ele>
        <time>2016-09-02T15:58:09+02:00</time>
      </trkpt>
      <trkpt lat="44.82554" lon="6.25857">
        <ele>1350</ele>
        <time>2016-09-02T15:59:09+02:00</time>
      </trkpt>
      <trkpt lat="44.82549" lon="6.25826">
        <ele>1347</ele>
        <time>2016-09-02T15:59:28+02:00</time>
      </trkpt>
      <trkpt lat="44.82549" lon="6.25794">
        <ele>1344</ele>
        <time>2016-09-02T15:59:48+02:00</time>
      </trkpt>
      <trkpt lat="44.82543" lon="6.25764">
        <ele>1337</ele>
        <time>2016-09-02T16:00:15+02:00</time>
      </trkpt>
      <trkpt lat="44.82542" lon="6.25732">
        <ele>1330</ele>
        <time>2016-09-02T16:00:38+02:00</time>
      </trkpt>
      <trkpt lat="44.82551" lon="6.25702">
        <ele>1330</ele>
        <time>2016-09-02T16:00:54+02:00</time>
      </trkpt>
      <trkpt lat="44.82563" lon="6.25673">
        <ele>1331</ele>
        <time>2016-09-02T16:01:20+02:00</time>
      </trkpt>
      <trkpt lat="44.82578" lon="6.25648">
        <ele>1337</ele>
        <time>2016-09-02T16:01:39+02:00</time>
      </trkpt>
      <trkpt lat="44.82579" lon="6.25617">
        <ele>1332</ele>
        <time>2016-09-02T16:01:57+02:00</time>
      </trkpt>
      <trkpt lat="44.82589" lon="6.25587">
        <ele>1334</ele>
        <time>2016-09-02T16:02:17+02:00</time>
      </trkpt>
      <trkpt lat="44.82575" lon="6.25562">
        <ele>1320</ele>
        <time>2016-09-02T16:02:39+02:00</time>
      </trkpt>
      <trkpt lat="44.82567" lon="6.25531">
        <ele>1311</ele>
        <time>2016-09-02T16:03:08+02:00</time>
      </trkpt>
      <trkpt lat="44.82565" lon="6.25498">
        <ele>1306</ele>
        <time>2016-09-02T16:03:34+02:00</time>
      </trkpt>
      <trkpt lat="44.82557" lon="6.25468">
        <ele>1298</ele>
        <time>2016-09-02T16:03:56+02:00</time>
      </trkpt>
      <trkpt lat="44.82557" lon="6.25436">
        <ele>1295</ele>
        <time>2016-09-02T16:04:21+02:00</time>
      </trkpt>
      <trkpt lat="44.82556" lon="6.25401">
        <ele>1289</ele>
        <time>2016-09-02T16:18:54+02:00</time>
      </trkpt>
      <trkpt lat="44.82564" lon="6.25372">
        <ele>1289</ele>
        <time>2016-09-02T16:19:16+02:00</time>
      </trkpt>
      <trkpt lat="44.82574" lon="6.25341">
        <ele>1287</ele>
        <time>2016-09-02T16:19:43+02:00</time>
      </trkpt>
      <trkpt lat="44.82581" lon="6.2531">
        <ele>1284</ele>
        <time>2016-09-02T16:20:13+02:00</time>
      </trkpt>
      <trkpt lat="44.82586" lon="6.25278">
        <ele>1279</ele>
        <time>2016-09-02T16:20:35+02:00</time>
      </trkpt>
      <trkpt lat="44.82598" lon="6.25251">
        <ele>1282</ele>
        <time>2016-09-02T16:21:01+02:00</time>
      </trkpt>
      <trkpt lat="44.82595" lon="6.25219">
        <ele>1276</ele>
        <time>2016-09-02T16:21:28+02:00</time>
      </trkpt>
      <trkpt lat="44.82593" lon="6.25186">
        <ele>1270</ele>
        <time>2016-09-02T16:21:55+02:00</time>
      </trkpt>
      <trkpt lat="44.82592" lon="6.25154">
        <ele>1265</ele>
        <time>2016-09-02T16:22:16+02:00</time>
      </trkpt>
      <trkpt lat="44.82595" lon="6.25123">
        <ele>1264</ele>
        <time>2016-09-02T16:22:44+02:00</time>
      </trkpt>
      <trkpt lat="44.82594" lon="6.2509">
        <ele>1260</ele>
        <time>2016-09-02T16:23:07+02:00</time>
      </trkpt>
      <trkpt lat="44.82598" lon="6.25058">
        <ele>1260</ele>
        <time>2016-09-02T16:23:26+02:00</time>
      </trkpt>
      <trkpt lat="44.826" lon="6.25027">
        <ele>1258</ele>
        <time>2016-09-02T16:23:49+02:00</time>
      </trkpt>
      <trkpt lat="44.82597" lon="6.24995">
        <ele>1253</ele>
        <time>2016-09-02T16:24:09+02:00</time>
      </trkpt>
      <trkpt lat="44.82595" lon="6.24963">
        <ele>1251</ele>
        <time>2016-09-02T16:24:30+02:00</time>
      </trkpt>
      <trkpt lat="44.82595" lon="6.2493">
        <ele>1250</ele>
        <time>2016-09-02T16:24:55+02:00</time>
      </trkpt>
      <trkpt lat="44.82591" lon="6.24898">
        <ele>1248</ele>
        <time>2016-09-02T16:25:17+02:00</time>
      </trkpt>
      <trkpt lat="44.8258" lon="6.2487">
        <ele>1242</ele>
        <time>2016-09-02T16:25:33+02:00</time>
      </trkpt>
      <trkpt lat="44.82569" lon="6.2484">
        <ele>1238</ele>
        <time>2016-09-02T16:25:48+02:00</time>
      </trkpt>
      <trkpt lat="44.82565" lon="6.24809">
        <ele>1234</ele>
        <time>2016-09-02T16:26:06+02:00</time>
      </trkpt>
      <trkpt lat="44.82564" lon="6.24776">
        <ele>1231</ele>
        <time>2016-09-02T16:26:26+02:00</time>
      </trkpt>
      <trkpt lat="44.82564" lon="6.24743">
        <ele>1228</ele>
        <time>2016-09-02T16:26:48+02:00</time>
      </trkpt>
      <trkpt lat="44.82563" lon="6.24709">
        <ele>1226</ele>
        <time>2016-09-02T16:27:15+02:00</time>
      </trkpt>
      <trkpt lat="44.82563" lon="6.24675">
        <ele>1224</ele>
        <time>2016-09-02T16:27:36+02:00</time>
      </trkpt>
      <trkpt lat="44.82556" lon="6.24644">
        <ele>1222</ele>
        <time>2016-09-02T16:27:49+02:00</time>
      </trkpt>
      <trkpt lat="44.8255" lon="6.24612">
        <ele>1219</ele>
        <time>2016-09-02T16:28:07+02:00</time>
      </trkpt>
      <trkpt lat="44.82545" lon="6.2458">
        <ele>1218</ele>
        <time>2016-09-02T16:28:22+02:00</time>
      </trkpt>
      <trkpt lat="44.82541" lon="6.24547">
        <ele>1215</ele>
        <time>2016-09-02T16:28:43+02:00</time>
      </trkpt>
      <trkpt lat="44.82538" lon="6.24514">
        <ele>1213</ele>
        <time>2016-09-02T16:29:03+02:00</time>
      </trkpt>
      <trkpt lat="44.82534" lon="6.24483">
        <ele>1210</ele>
        <time>2016-09-02T16:29:23+02:00</time>
      </trkpt>
      <trkpt lat="44.82532" lon="6.24451">
        <ele>1208</ele>
        <time>2016-09-02T16:29:40+02:00</time>
      </trkpt>
      <trkpt lat="44.82524" lon="6.2442">
        <ele>1204</ele>
        <time>2016-09-02T16:29:56+02:00</time>
      </trkpt>
      <trkpt lat="44.82525" lon="6.24388">
        <ele>1203</ele>
        <time>2016-09-02T16:30:13+02:00</time>
      </trkpt>
      <trkpt lat="44.82521" lon="6.24357">
        <ele>1201</ele>
        <time>2016-09-02T16:30:29+02:00</time>
      </trkpt>
      <trkpt lat="44.82523" lon="6.24325">
        <ele>1200</ele>
        <time>2016-09-02T16:30:44+02:00</time>
      </trkpt>
      <trkpt lat="44.82519" lon="6.24293">
        <ele>1198</ele>
        <time>2016-09-02T16:31:01+02:00</time>
      </trkpt>
      <trkpt lat="44.82514" lon="6.24262">
        <ele>1196</ele>
        <time>2016-09-02T16:31:16+02:00</time>
      </trkpt>
      <trkpt lat="44.82505" lon="6.24233">
        <ele>1194</ele>
        <time>2016-09-02T16:31:35+02:00</time>
      </trkpt>
      <trkpt lat="44.82505" lon="6.242">
        <ele>1193</ele>
        <time>2016-09-02T16:31:52+02:00</time>
      </trkpt>
      <trkpt lat="44.82498" lon="6.2417">
        <ele>1191</ele>
        <time>2016-09-02T16:32:08+02:00</time>
      </trkpt>
      <trkpt lat="44.82496" lon="6.24137">
        <ele>1189</ele>
        <time>2016-09-02T16:32:31+02:00</time>
      </trkpt>
      <trkpt lat="44.8249" lon="6.24107">
        <ele>1187</ele>
        <time>2016-09-02T16:32:53+02:00</time>
      </trkpt>
      <trkpt lat="44.82486" lon="6.24075">
        <ele>1185</ele>
        <time>2016-09-02T16:33:09+02:00</time>
      </trkpt>
      <trkpt lat="44.82485" lon="6.24041">
        <ele>1183</ele>
        <time>2016-09-02T16:33:23+02:00</time>
      </trkpt>
      <trkpt lat="44.82483" lon="6.24009">
        <ele>1181</ele>
        <time>2016-09-02T16:33:38+02:00</time>
      </trkpt>
      <trkpt lat="44.82484" lon="6.23976">
        <ele>1180</ele>
        <time>2016-09-02T16:33:57+02:00</time>
      </trkpt>
      <trkpt lat="44.82486" lon="6.23944">
        <ele>1180</ele>
        <time>2016-09-02T16:34:17+02:00</time>
      </trkpt>
      <trkpt lat="44.82487" lon="6.23911">
        <ele>1180</ele>
        <time>2016-09-02T16:34:37+02:00</time>
      </trkpt>
      <trkpt lat="44.82487" lon="6.23879">
        <ele>1180</ele>
        <time>2016-09-02T16:34:52+02:00</time>
      </trkpt>
      <trkpt lat="44.82488" lon="6.23847">
        <ele>1181</ele>
        <time>2016-09-02T16:35:09+02:00</time>
      </trkpt>
      <trkpt lat="44.82488" lon="6.23814">
        <ele>1181</ele>
        <time>2016-09-02T16:35:26+02:00</time>
      </trkpt>
      <trkpt lat="44.8249" lon="6.23781">
        <ele>1182</ele>
        <time>2016-09-02T16:35:42+02:00</time>
      </trkpt>
      <trkpt lat="44.82494" lon="6.23748">
        <ele>1182</ele>
        <time>2016-09-02T16:35:59+02:00</time>
      </trkpt>
      <trkpt lat="44.82493" lon="6.23716">
        <ele>1183</ele>
        <time>2016-09-02T16:36:16+02:00</time>
      </trkpt>
      <trkpt lat="44.82494" lon="6.23683">
        <ele>1185</ele>
        <time>2016-09-02T16:36:36+02:00</time>
      </trkpt>
      <trkpt lat="44.82487" lon="6.23652">
        <ele>1184</ele>
        <time>2016-09-02T16:36:53+02:00</time>
      </trkpt>
      <trkpt lat="44.82487" lon="6.23619">
        <ele>1185</ele>
        <time>2016-09-02T16:37:11+02:00</time>
      </trkpt>
      <trkpt lat="44.82485" lon="6.23587">
        <ele>1185</ele>
        <time>2016-09-02T16:37:26+02:00</time>
      </trkpt>
      <trkpt lat="44.82477" lon="6.23557">
        <ele>1183</ele>
        <time>2016-09-02T16:37:44+02:00</time>
      </trkpt>
      <trkpt lat="44.8248" lon="6.23526">
        <ele>1182</ele>
        <time>2016-09-02T16:38:02+02:00</time>
      </trkpt>
      <trkpt lat="44.82488" lon="6.23496">
        <ele>1182</ele>
        <time>2016-09-02T16:38:19+02:00</time>
      </trkpt>
      <trkpt lat="44.8249" lon="6.23463">
        <ele>1181</ele>
        <time>2016-09-02T16:38:35+02:00</time>
      </trkpt>
      <trkpt lat="44.8249" lon="6.23429">
        <ele>1179</ele>
        <time>2016-09-02T16:38:55+02:00</time>
      </trkpt>
      <trkpt lat="44.82489" lon="6.23397">
        <ele>1178</ele>
        <time>2016-09-02T16:39:11+02:00</time>
      </trkpt>
      <trkpt lat="44.82489" lon="6.23366">
        <ele>1177</ele>
        <time>2016-09-02T16:39:28+02:00</time>
      </trkpt>
      <trkpt lat="44.82479" lon="6.23337">
        <ele>1175</ele>
        <time>2016-09-02T16:39:47+02:00</time>
      </trkpt>
      <trkpt lat="44.82461" lon="6.23316">
        <ele>1172</ele>
        <time>2016-09-02T16:40:10+02:00</time>
      </trkpt>
      <trkpt lat="44.82438" lon="6.23313">
        <ele>1168</ele>
        <time>2016-09-02T16:40:48+02:00</time>
      </trkpt>
      <trkpt lat="44.82416" lon="6.23324">
        <ele>1165</ele>
        <time>2016-09-02T16:41:25+02:00</time>
      </trkpt>
      <trkpt lat="44.82393" lon="6.23321">
        <ele>1171</ele>
        <time>2016-09-02T16:41:43+02:00</time>
      </trkpt>
      <trkpt lat="44.82372" lon="6.23307">
        <ele>1176</ele>
        <time>2016-09-02T16:42:18+02:00</time>
      </trkpt>
      <trkpt lat="44.82354" lon="6.23281">
        <ele>1179</ele>
        <time>2016-09-02T16:44:49+02:00</time>
      </trkpt>
      <trkpt lat="44.8235" lon="6.2325">
        <ele>1178</ele>
        <time>2016-09-02T16:45:08+02:00</time>
      </trkpt>
      <trkpt lat="44.82346" lon="6.23217">
        <ele>1175</ele>
        <time>2016-09-02T16:45:29+02:00</time>
      </trkpt>
      <trkpt lat="44.82342" lon="6.23186">
        <ele>1172</ele>
        <time>2016-09-02T16:45:41+02:00</time>
      </trkpt>
      <trkpt lat="44.82332" lon="6.23155">
        <ele>1169</ele>
        <time>2016-09-02T16:46:00+02:00</time>
      </trkpt>
      <trkpt lat="44.82326" lon="6.23124">
        <ele>1168</ele>
        <time>2016-09-02T16:46:27+02:00</time>
      </trkpt>
      <trkpt lat="44.82317" lon="6.23095">
        <ele>1167</ele>
        <time>2016-09-02T16:46:56+02:00</time>
      </trkpt>
      <trkpt lat="44.82304" lon="6.23069">
        <ele>1168</ele>
        <time>2016-09-02T16:47:23+02:00</time>
      </trkpt>
      <trkpt lat="44.82298" lon="6.23037">
        <ele>1165</ele>
        <time>2016-09-02T16:47:48+02:00</time>
      </trkpt>
      <trkpt lat="44.82294" lon="6.23005">
        <ele>1161</ele>
        <time>2016-09-02T16:48:05+02:00</time>
      </trkpt>
      <trkpt lat="44.82278" lon="6.22983">
        <ele>1162</ele>
        <time>2016-09-02T16:48:24+02:00</time>
      </trkpt>
      <trkpt lat="44.82263" lon="6.22958">
        <ele>1161</ele>
        <time>2016-09-02T16:48:49+02:00</time>
      </trkpt>
      <trkpt lat="44.82246" lon="6.22936">
        <ele>1162</ele>
        <time>2016-09-02T16:49:16+02:00</time>
      </trkpt>
      <trkpt lat="44.82232" lon="6.22911">
        <ele>1166</ele>
        <time>2016-09-02T16:49:38+02:00</time>
      </trkpt>
      <trkpt lat="44.82221" lon="6.22881">
        <ele>1168</ele>
        <time>2016-09-02T16:50:01+02:00</time>
      </trkpt>
      <trkpt lat="44.82208" lon="6.22855">
        <ele>1170</ele>
        <time>2016-09-02T16:50:22+02:00</time>
      </trkpt>
      <trkpt lat="44.82202" lon="6.22824">
        <ele>1167</ele>
        <time>2016-09-02T16:50:41+02:00</time>
      </trkpt>
      <trkpt lat="44.82189" lon="6.22796">
        <ele>1166</ele>
        <time>2016-09-02T16:51:12+02:00</time>
      </trkpt>
      <trkpt lat="44.82173" lon="6.22773">
        <ele>1164</ele>
        <time>2016-09-02T16:51:34+02:00</time>
      </trkpt>
      <trkpt lat="44.82159" lon="6.22747">
        <ele>1163</ele>
        <time>2016-09-02T16:51:51+02:00</time>
      </trkpt>
      <trkpt lat="44.82143" lon="6.22723">
        <ele>1166</ele>
        <time>2016-09-02T16:52:08+02:00</time>
      </trkpt>
      <trkpt lat="44.82127" lon="6.22699">
        <ele>1167</ele>
        <time>2016-09-02T16:52:28+02:00</time>
      </trkpt>
      <trkpt lat="44.82105" lon="6.22686">
        <ele>1172</ele>
        <time>2016-09-02T16:52:53+02:00</time>
      </trkpt>
      <trkpt lat="44.82086" lon="6.22665">
        <ele>1173</ele>
        <time>2016-09-02T16:53:14+02:00</time>
      </trkpt>
      <trkpt lat="44.82077" lon="6.22635">
        <ele>1175</ele>
        <time>2016-09-02T16:53:48+02:00</time>
      </trkpt>
      <trkpt lat="44.82088" lon="6.22601">
        <ele>1166</ele>
        <time>2016-09-02T16:58:06+02:00</time>
      </trkpt>
      <trkpt lat="44.82082" lon="6.2257">
        <ele>1165</ele>
        <time>2016-09-02T17:07:45+02:00</time>
      </trkpt>
      <trkpt lat="44.82078" lon="6.22538">
        <ele>1165</ele>
        <time>2016-09-02T17:08:04+02:00</time>
      </trkpt>
      <trkpt lat="44.82075" lon="6.22506">
        <ele>1164</ele>
        <time>2016-09-02T17:08:26+02:00</time>
      </trkpt>
      <trkpt lat="44.82067" lon="6.22475">
        <ele>1166</ele>
        <time>2016-09-02T17:08:48+02:00</time>
      </trkpt>
      <trkpt lat="44.82061" lon="6.22443">
        <ele>1166</ele>
        <time>2016-09-02T17:09:08+02:00</time>
      </trkpt>
      <trkpt lat="44.82051" lon="6.22413">
        <ele>1168</ele>
        <time>2016-09-02T17:09:31+02:00</time>
      </trkpt>
      <trkpt lat="44.82039" lon="6.22386">
        <ele>1172</ele>
        <time>2016-09-02T17:09:54+02:00</time>
      </trkpt>
      <trkpt lat="44.82034" lon="6.22355">
        <ele>1171</ele>
        <time>2016-09-02T17:10:15+02:00</time>
      </trkpt>
      <trkpt lat="44.82031" lon="6.22323">
        <ele>1170</ele>
        <time>2016-09-02T17:10:35+02:00</time>
      </trkpt>
      <trkpt lat="44.82028" lon="6.22291">
        <ele>1168</ele>
        <time>2016-09-02T17:10:59+02:00</time>
      </trkpt>
      <trkpt lat="44.82024" lon="6.22259">
        <ele>1168</ele>
        <time>2016-09-02T17:11:27+02:00</time>
      </trkpt>
      <trkpt lat="44.82027" lon="6.22227">
        <ele>1164</ele>
        <time>2016-09-02T17:11:48+02:00</time>
      </trkpt>
      <trkpt lat="44.82021" lon="6.22195">
        <ele>1163</ele>
        <time>2016-09-02T17:12:04+02:00</time>
      </trkpt>
      <trkpt lat="44.82018" lon="6.22162">
        <ele>1161</ele>
        <time>2016-09-02T17:12:23+02:00</time>
      </trkpt>
      <trkpt lat="44.82013" lon="6.22131">
        <ele>1158</ele>
        <time>2016-09-02T17:12:40+02:00</time>
      </trkpt>
      <trkpt lat="44.82012" lon="6.22099">
        <ele>1154</ele>
        <time>2016-09-02T17:13:01+02:00</time>
      </trkpt>
      <trkpt lat="44.82005" lon="6.22068">
        <ele>1151</ele>
        <time>2016-09-02T17:13:28+02:00</time>
      </trkpt>
      <trkpt lat="44.81994" lon="6.22039">
        <ele>1149</ele>
        <time>2016-09-02T17:13:57+02:00</time>
      </trkpt>
      <trkpt lat="44.81992" lon="6.22007">
        <ele>1145</ele>
        <time>2016-09-02T17:14:18+02:00</time>
      </trkpt>
      <trkpt lat="44.81995" lon="6.21975">
        <ele>1141</ele>
        <time>2016-09-02T17:14:41+02:00</time>
      </trkpt>
      <trkpt lat="44.81992" lon="6.21943">
        <ele>1141</ele>
        <time>2016-09-02T17:15:04+02:00</time>
      </trkpt>
      <trkpt lat="44.81982" lon="6.21913">
        <ele>1143</ele>
        <time>2016-09-02T17:15:50+02:00</time>
      </trkpt>
      <trkpt lat="44.81974" lon="6.21883">
        <ele>1145</ele>
        <time>2016-09-02T17:16:11+02:00</time>
      </trkpt>
      <trkpt lat="44.81973" lon="6.2185">
        <ele>1144</ele>
        <time>2016-09-02T17:16:26+02:00</time>
      </trkpt>
      <trkpt lat="44.81972" lon="6.21818">
        <ele>1143</ele>
        <time>2016-09-02T17:16:59+02:00</time>
      </trkpt>
      <trkpt lat="44.81971" lon="6.21785">
        <ele>1142</ele>
        <time>2016-09-02T17:17:19+02:00</time>
      </trkpt>
      <trkpt lat="44.81966" lon="6.21753">
        <ele>1141</ele>
        <time>2016-09-02T17:17:36+02:00</time>
      </trkpt>
      <trkpt lat="44.81958" lon="6.21723">
        <ele>1142</ele>
        <time>2016-09-02T17:17:56+02:00</time>
      </trkpt>
      <trkpt lat="44.81959" lon="6.2169">
        <ele>1139</ele>
        <time>2016-09-02T17:18:15+02:00</time>
      </trkpt>
      <trkpt lat="44.81961" lon="6.21659">
        <ele>1136</ele>
        <time>2016-09-02T17:18:33+02:00</time>
      </trkpt>
      <trkpt lat="44.81961" lon="6.21626">
        <ele>1133</ele>
        <time>2016-09-02T17:18:50+02:00</time>
      </trkpt>
      <trkpt lat="44.81955" lon="6.21593">
        <ele>1131</ele>
        <time>2016-09-02T17:19:10+02:00</time>
      </trkpt>
      <trkpt lat="44.81943" lon="6.21565">
        <ele>1130</ele>
        <time>2016-09-02T17:19:29+02:00</time>
      </trkpt>
      <trkpt lat="44.81935" lon="6.21535">
        <ele>1128</ele>
        <time>2016-09-02T17:19:45+02:00</time>
      </trkpt>
      <trkpt lat="44.8192" lon="6.21511">
        <ele>1126</ele>
        <time>2016-09-02T17:20:02+02:00</time>
      </trkpt>
      <trkpt lat="44.819" lon="6.21494">
        <ele>1128</ele>
        <time>2016-09-02T17:20:21+02:00</time>
      </trkpt>
      <trkpt lat="44.81884" lon="6.21469">
        <ele>1131</ele>
        <time>2016-09-02T17:20:41+02:00</time>
      </trkpt>
      <trkpt lat="44.81882" lon="6.21438">
        <ele>1131</ele>
        <time>2016-09-02T17:20:57+02:00</time>
      </trkpt>
      <trkpt lat="44.81884" lon="6.21405">
        <ele>1130</ele>
        <time>2016-09-02T17:21:15+02:00</time>
      </trkpt>
      <trkpt lat="44.81883" lon="6.21373">
        <ele>1129</ele>
        <time>2016-09-02T17:21:31+02:00</time>
      </trkpt>
      <trkpt lat="44.81879" lon="6.21341">
        <ele>1128</ele>
        <time>2016-09-02T17:21:50+02:00</time>
      </trkpt>
      <trkpt lat="44.81868" lon="6.21312">
        <ele>1130</ele>
        <time>2016-09-02T17:22:13+02:00</time>
      </trkpt>
      <trkpt lat="44.81882" lon="6.21287">
        <ele>1126</ele>
        <time>2016-09-02T17:22:40+02:00</time>
      </trkpt>
      <trkpt lat="44.81884" lon="6.21254">
        <ele>1124</ele>
        <time>2016-09-02T17:22:58+02:00</time>
      </trkpt>
      <trkpt lat="44.81888" lon="6.21223">
        <ele>1123</ele>
        <time>2016-09-02T17:23:14+02:00</time>
      </trkpt>
      <trkpt lat="44.81892" lon="6.2119">
        <ele>1121</ele>
        <time>2016-09-02T17:23:33+02:00</time>
      </trkpt>
      <trkpt lat="44.81889" lon="6.21157">
        <ele>1121</ele>
        <time>2016-09-02T17:23:49+02:00</time>
      </trkpt>
      <trkpt lat="44.81885" lon="6.21126">
        <ele>1123</ele>
        <time>2016-09-02T17:24:07+02:00</time>
      </trkpt>
      <trkpt lat="44.81882" lon="6.21092">
        <ele>1124</ele>
        <time>2016-09-02T17:24:34+02:00</time>
      </trkpt>
      <trkpt lat="44.81877" lon="6.21061">
        <ele>1126</ele>
        <time>2016-09-02T17:24:53+02:00</time>
      </trkpt>
      <trkpt lat="44.81872" lon="6.21029">
        <ele>1128</ele>
        <time>2016-09-02T17:25:10+02:00</time>
      </trkpt>
      <trkpt lat="44.81875" lon="6.20995">
        <ele>1127</ele>
        <time>2016-09-02T17:25:31+02:00</time>
      </trkpt>
      <trkpt lat="44.81883" lon="6.20964">
        <ele>1124</ele>
        <time>2016-09-02T17:25:50+02:00</time>
      </trkpt>
      <trkpt lat="44.81885" lon="6.20932">
        <ele>1122</ele>
        <time>2016-09-02T17:26:11+02:00</time>
      </trkpt>
      <trkpt lat="44.81885" lon="6.209">
        <ele>1121</ele>
        <time>2016-09-02T17:26:26+02:00</time>
      </trkpt>
      <trkpt lat="44.81885" lon="6.20868">
        <ele>1119</ele>
        <time>2016-09-02T17:26:45+02:00</time>
      </trkpt>
      <trkpt lat="44.81886" lon="6.20836">
        <ele>1116</ele>
        <time>2016-09-02T17:27:05+02:00</time>
      </trkpt>
      <trkpt lat="44.81895" lon="6.20807">
        <ele>1113</ele>
        <time>2016-09-02T17:27:25+02:00</time>
      </trkpt>
      <trkpt lat="44.81894" lon="6.20774">
        <ele>1112</ele>
        <time>2016-09-02T17:27:55+02:00</time>
      </trkpt>
      <trkpt lat="44.81882" lon="6.20745">
        <ele>1112</ele>
        <time>2016-09-02T17:28:17+02:00</time>
      </trkpt>
      <trkpt lat="44.81871" lon="6.20716">
        <ele>1114</ele>
        <time>2016-09-02T17:28:30+02:00</time>
      </trkpt>
      <trkpt lat="44.81868" lon="6.20685">
        <ele>1113</ele>
        <time>2016-09-02T17:28:49+02:00</time>
      </trkpt>
      <trkpt lat="44.81861" lon="6.20655">
        <ele>1114</ele>
        <time>2016-09-02T17:29:03+02:00</time>
      </trkpt>
      <trkpt lat="44.81865" lon="6.20623">
        <ele>1112</ele>
        <time>2016-09-02T17:29:23+02:00</time>
      </trkpt>
      <trkpt lat="44.81867" lon="6.20589">
        <ele>1111</ele>
        <time>2016-09-02T17:29:47+02:00</time>
      </trkpt>
      <trkpt lat="44.81872" lon="6.20557">
        <ele>1109</ele>
        <time>2016-09-02T17:30:04+02:00</time>
      </trkpt>
      <trkpt lat="44.81871" lon="6.20525">
        <ele>1108</ele>
        <time>2016-09-02T17:30:24+02:00</time>
      </trkpt>
      <trkpt lat="44.81866" lon="6.20492">
        <ele>1107</ele>
        <time>2016-09-02T17:30:39+02:00</time>
      </trkpt>
      <trkpt lat="44.81863" lon="6.20461">
        <ele>1107</ele>
        <time>2016-09-02T17:31:04+02:00</time>
      </trkpt>
      <trkpt lat="44.81851" lon="6.2043">
        <ele>1107</ele>
        <time>2016-09-02T17:31:18+02:00</time>
      </trkpt>
      <trkpt lat="44.81845" lon="6.20398">
        <ele>1106</ele>
        <time>2016-09-02T17:31:33+02:00</time>
      </trkpt>
      <trkpt lat="44.81843" lon="6.20365">
        <ele>1104</ele>
        <time>2016-09-02T17:31:55+02:00</time>
      </trkpt>
      <trkpt lat="44.81845" lon="6.2033">
        <ele>1102</ele>
        <time>2016-09-02T17:32:19+02:00</time>
      </trkpt>
      <trkpt lat="44.81853" lon="6.20301">
        <ele>1102</ele>
        <time>2016-09-02T17:32:34+02:00</time>
      </trkpt>
      <trkpt lat="44.81845" lon="6.20271">
        <ele>1102</ele>
        <time>2016-09-02T17:32:59+02:00</time>
      </trkpt>
      <trkpt lat="44.81842" lon="6.20239">
        <ele>1102</ele>
        <time>2016-09-02T17:33:18+02:00</time>
      </trkpt>
      <trkpt lat="44.81829" lon="6.20209">
        <ele>1103</ele>
        <time>2016-09-02T17:33:40+02:00</time>
      </trkpt>
      <trkpt lat="44.81813" lon="6.20186">
        <ele>1108</ele>
        <time>2016-09-02T17:33:59+02:00</time>
      </trkpt>
      <trkpt lat="44.81797" lon="6.20165">
        <ele>1111</ele>
        <time>2016-09-02T17:34:33+02:00</time>
      </trkpt>
      <trkpt lat="44.8178" lon="6.20143">
        <ele>1113</ele>
        <time>2016-09-02T17:34:57+02:00</time>
      </trkpt>
      <trkpt lat="44.81771" lon="6.20112">
        <ele>1109</ele>
        <time>2016-09-02T17:35:16+02:00</time>
      </trkpt>
      <trkpt lat="44.81757" lon="6.20087">
        <ele>1105</ele>
        <time>2016-09-02T17:36:05+02:00</time>
      </trkpt>
      <trkpt lat="44.81741" lon="6.20064">
        <ele>1108</ele>
        <time>2016-09-02T17:36:27+02:00</time>
      </trkpt>
      <trkpt lat="44.81731" lon="6.20034">
        <ele>1111</ele>
        <time>2016-09-02T17:36:46+02:00</time>
      </trkpt>
      <trkpt lat="44.81717" lon="6.20008">
        <ele>1112</ele>
        <time>2016-09-02T17:37:12+02:00</time>
      </trkpt>
      <trkpt lat="44.81721" lon="6.19975">
        <ele>1107</ele>
        <time>2016-09-02T17:37:28+02:00</time>
      </trkpt>
      <trkpt lat="44.81715" lon="6.19942">
        <ele>1107</ele>
        <time>2016-09-02T17:37:46+02:00</time>
      </trkpt>
      <trkpt lat="44.81712" lon="6.19909">
        <ele>1105</ele>
        <time>2016-09-02T17:38:11+02:00</time>
      </trkpt>
      <trkpt lat="44.81702" lon="6.19881">
        <ele>1105</ele>
        <time>2016-09-02T17:38:27+02:00</time>
      </trkpt>
      <trkpt lat="44.81693" lon="6.19847">
        <ele>1104</ele>
        <time>2016-09-02T17:39:04+02:00</time>
      </trkpt>
      <trkpt lat="44.81678" lon="6.19823">
        <ele>1104</ele>
        <time>2016-09-02T17:39:22+02:00</time>
      </trkpt>
      <trkpt lat="44.81668" lon="6.19794">
        <ele>1104</ele>
        <time>2016-09-02T17:39:38+02:00</time>
      </trkpt>
      <trkpt lat="44.81655" lon="6.19768">
        <ele>1106</ele>
        <time>2016-09-02T17:39:57+02:00</time>
      </trkpt>
      <trkpt lat="44.8166" lon="6.19736">
        <ele>1102</ele>
        <time>2016-09-02T17:40:28+02:00</time>
      </trkpt>
      <trkpt lat="44.81655" lon="6.19704">
        <ele>1101</ele>
        <time>2016-09-02T17:40:55+02:00</time>
      </trkpt>
      <trkpt lat="44.81651" lon="6.19672">
        <ele>1099</ele>
        <time>2016-09-02T17:41:16+02:00</time>
      </trkpt>
      <trkpt lat="44.81657" lon="6.19641">
        <ele>1096</ele>
        <time>2016-09-02T17:42:41+02:00</time>
      </trkpt>
      <trkpt lat="44.81662" lon="6.19609">
        <ele>1094</ele>
        <time>2016-09-02T17:42:54+02:00</time>
      </trkpt>
      <trkpt lat="44.81661" lon="6.19577">
        <ele>1093</ele>
        <time>2016-09-02T17:43:20+02:00</time>
      </trkpt>
      <trkpt lat="44.81645" lon="6.19554">
        <ele>1095</ele>
        <time>2016-09-02T17:43:52+02:00</time>
      </trkpt>
      <trkpt lat="44.81632" lon="6.19527">
        <ele>1097</ele>
        <time>2016-09-02T17:44:12+02:00</time>
      </trkpt>
      <trkpt lat="44.81639" lon="6.19495">
        <ele>1095</ele>
        <time>2016-09-02T17:44:40+02:00</time>
      </trkpt>
      <trkpt lat="44.81655" lon="6.19473">
        <ele>1093</ele>
        <time>2016-09-02T17:45:01+02:00</time>
      </trkpt>
      <trkpt lat="44.81671" lon="6.1945">
        <ele>1091</ele>
        <time>2016-09-02T17:45:21+02:00</time>
      </trkpt>
      <trkpt lat="44.8169" lon="6.19427">
        <ele>1091</ele>
        <time>2016-09-02T17:45:58+02:00</time>
      </trkpt>
      <trkpt lat="44.81711" lon="6.1941">
        <ele>1090</ele>
        <time>2016-09-02T17:46:57+02:00</time>
      </trkpt>
      <trkpt lat="44.81691" lon="6.19428">
        <ele>1091</ele>
        <time>2016-09-02T17:47:18+02:00</time>
      </trkpt>
      <trkpt lat="44.81678" lon="6.19453">
        <ele>1091</ele>
        <time>2016-09-02T17:47:37+02:00</time>
      </trkpt>
      <trkpt lat="44.81659" lon="6.19478">
        <ele>1092</ele>
        <time>2016-09-02T17:51:38+02:00</time>
      </trkpt>
    </trkseg>
  </trk>
</gpx>